PWSweather.com
Personal Weather Stations
Station Observations
EI4HQ
Cork Harbour, CobhIE

Cork HarbourCobhIE

Lat: 51.85, Lon: -8.29

Elevation: 252

Station Type: Davis Vantage Pro2

http://www.corkharbourweather.ie

High Low Average
Temperature 56.1°F13.4°C 44.2°F6.8°C 49.8°F9.9°C
Dew Point 52.2°F11.2°C 39.2°F4.0°C 46.6°F8.1°C
Winds 9.0 mph 14.5 kmh Calm Calm 4.0 mph WSW6.4 kmh WSW
Wind Gusts 19.0 mph30.6 kmh 2.0 mph3.2 kmh 10.0 mph16.1 kmh
Humidity 97% 71% 89%
Pressure 29.96 in1014.6 mb 29.77 in1008.1 mb -
Precipitation 0.52 in13.2 mm - -
Hour Temp Dew Point Humidity Winds Wind Gusts Pressure Precip Precip Rate Daily Precip Total
12:00 AM 49.1°F9.5°C 46.6°F8.1°C 91% 5.0 mph SW8.0 kmh SW 11.0 mph17.7 kmh 29.96 in1014.6 mb 0.00 in0.0 mm 0.00 in0.0 mm 0.00 in0.0 mm
12:03 AM 48.9°F9.4°C 46.4°F8.0°C 91% 5.0 mph SW8.0 kmh SW 12.0 mph19.3 kmh 29.96 in1014.6 mb 0.00 in0.0 mm 0.00 in0.0 mm 0.00 in0.0 mm
12:06 AM 48.9°F9.4°C 46.4°F8.0°C 91% 5.0 mph SW8.0 kmh SW 12.0 mph19.3 kmh 29.96 in1014.6 mb 0.00 in0.0 mm 0.00 in0.0 mm 0.00 in0.0 mm
12:09 AM 48.9°F9.4°C 46.4°F8.0°C 91% 6.0 mph SW9.7 kmh SW 12.0 mph19.3 kmh 29.96 in1014.6 mb 0.00 in0.0 mm 0.00 in0.0 mm 0.00 in0.0 mm
12:12 AM 48.9°F9.4°C 46.4°F8.0°C 91% 5.0 mph SW8.0 kmh SW 12.0 mph19.3 kmh 29.95 in1014.2 mb 0.00 in0.0 mm 0.00 in0.0 mm 0.00 in0.0 mm
12:15 AM 48.9°F9.4°C 46.8°F8.2°C 92% 5.0 mph SW8.0 kmh SW 11.0 mph17.7 kmh 29.95 in1014.2 mb 0.00 in0.0 mm 0.00 in0.0 mm 0.00 in0.0 mm
12:18 AM 48.9°F9.4°C 46.8°F8.2°C 92% 4.0 mph SW6.4 kmh SW 9.0 mph14.5 kmh 29.95 in1014.2 mb 0.00 in0.0 mm 0.00 in0.0 mm 0.00 in0.0 mm
12:21 AM 48.9°F9.4°C 46.8°F8.2°C 92% 3.0 mph SW4.8 kmh SW 7.0 mph11.3 kmh 29.96 in1014.6 mb 0.00 in0.0 mm 0.00 in0.0 mm 0.00 in0.0 mm
12:24 AM 48.9°F9.4°C 46.8°F8.2°C 92% 3.0 mph SW4.8 kmh SW 6.0 mph9.7 kmh 29.96 in1014.6 mb 0.00 in0.0 mm 0.00 in0.0 mm 0.00 in0.0 mm
12:27 AM 48.9°F9.4°C 46.8°F8.2°C 92% 3.0 mph SW4.8 kmh SW 6.0 mph9.7 kmh 29.96 in1014.6 mb 0.00 in0.0 mm 0.00 in0.0 mm 0.00 in0.0 mm
12:30 AM 48.9°F9.4°C 46.8°F8.2°C 92% 3.0 mph SW4.8 kmh SW 8.0 mph12.9 kmh 29.96 in1014.6 mb 0.00 in0.0 mm 0.00 in0.0 mm 0.00 in0.0 mm
12:33 AM 48.9°F9.4°C 46.8°F8.2°C 92% 3.0 mph SW4.8 kmh SW 8.0 mph12.9 kmh 29.95 in1014.2 mb 0.00 in0.0 mm 0.00 in0.0 mm 0.00 in0.0 mm
12:36 AM 49.1°F9.5°C 46.9°F8.3°C 92% 3.0 mph SW4.8 kmh SW 8.0 mph12.9 kmh 29.95 in1014.2 mb 0.00 in0.0 mm 0.00 in0.0 mm 0.00 in0.0 mm
12:39 AM 49.1°F9.5°C 46.9°F8.3°C 92% 3.0 mph SW4.8 kmh SW 7.0 mph11.3 kmh 29.95 in1014.2 mb 0.00 in0.0 mm 0.00 in0.0 mm 0.00 in0.0 mm
12:42 AM 49.1°F9.5°C 46.9°F8.3°C 92% 3.0 mph SW4.8 kmh SW 6.0 mph9.7 kmh 29.95 in1014.2 mb 0.00 in0.0 mm 0.00 in0.0 mm 0.00 in0.0 mm
12:45 AM 49.1°F9.5°C 46.9°F8.3°C 92% 3.0 mph SW4.8 kmh SW 6.0 mph9.7 kmh 29.95 in1014.2 mb 0.00 in0.0 mm 0.00 in0.0 mm 0.00 in0.0 mm
12:48 AM 49.3°F9.6°C 46.9°F8.3°C 92% 3.0 mph SW4.8 kmh SW 7.0 mph11.3 kmh 29.95 in1014.2 mb 0.00 in0.0 mm 0.00 in0.0 mm 0.00 in0.0 mm
12:51 AM 49.3°F9.6°C 47.3°F8.5°C 93% 3.0 mph SW4.8 kmh SW 7.0 mph11.3 kmh 29.95 in1014.2 mb 0.00 in0.0 mm 0.00 in0.0 mm 0.00 in0.0 mm
12:54 AM 49.3°F9.6°C 47.3°F8.5°C 93% 3.0 mph SW4.8 kmh SW 9.0 mph14.5 kmh 29.95 in1014.2 mb 0.00 in0.0 mm 0.00 in0.0 mm 0.00 in0.0 mm
12:57 AM 49.3°F9.6°C 47.3°F8.5°C 93% 4.0 mph SW6.4 kmh SW 9.0 mph14.5 kmh 29.95 in1014.2 mb 0.00 in0.0 mm 0.00 in0.0 mm 0.00 in0.0 mm
01:00 AM 49.3°F9.6°C 47.3°F8.5°C 93% 4.0 mph SW6.4 kmh SW 9.0 mph14.5 kmh 29.95 in1014.2 mb 0.00 in0.0 mm 0.00 in0.0 mm 0.00 in0.0 mm
01:03 AM 49.3°F9.6°C 47.3°F8.5°C 93% 5.0 mph WSW8.0 kmh WSW 12.0 mph19.3 kmh 29.95 in1014.2 mb 0.00 in0.0 mm 0.00 in0.0 mm 0.00 in0.0 mm
01:06 AM 49.3°F9.6°C 47.3°F8.5°C 93% 6.0 mph WSW9.7 kmh WSW 12.0 mph19.3 kmh 29.95 in1014.2 mb 0.00 in0.0 mm 0.00 in0.0 mm 0.00 in0.0 mm
01:09 AM 49.5°F9.7°C 47.5°F8.6°C 93% 7.0 mph WSW11.3 kmh WSW 12.0 mph19.3 kmh 29.95 in1014.2 mb 0.00 in0.0 mm 0.00 in0.0 mm 0.00 in0.0 mm
01:12 AM 49.5°F9.7°C 47.5°F8.6°C 93% 7.0 mph WSW11.3 kmh WSW 13.0 mph20.9 kmh 29.95 in1014.2 mb 0.00 in0.0 mm 0.00 in0.0 mm 0.00 in0.0 mm
01:15 AM 49.5°F9.7°C 47.5°F8.6°C 93% 7.0 mph WSW11.3 kmh WSW 13.0 mph20.9 kmh 29.95 in1014.2 mb 0.00 in0.0 mm 0.00 in0.0 mm 0.00 in0.0 mm
01:18 AM 49.5°F9.7°C 47.5°F8.6°C 93% 6.0 mph WSW9.7 kmh WSW 13.0 mph20.9 kmh 29.95 in1014.2 mb 0.00 in0.0 mm 0.00 in0.0 mm 0.00 in0.0 mm
01:21 AM 49.5°F9.7°C 47.5°F8.6°C 93% 6.0 mph WSW9.7 kmh WSW 12.0 mph19.3 kmh 29.94 in1013.9 mb 0.00 in0.0 mm 0.00 in0.0 mm 0.00 in0.0 mm
01:24 AM 49.5°F9.7°C 47.5°F8.6°C 93% 5.0 mph SW8.0 kmh SW 12.0 mph19.3 kmh 29.94 in1013.9 mb 0.00 in0.0 mm 0.00 in0.0 mm 0.00 in0.0 mm
01:27 AM 49.5°F9.7°C 47.5°F8.6°C 93% 5.0 mph SW8.0 kmh SW 12.0 mph19.3 kmh 29.93 in1013.5 mb 0.00 in0.0 mm 0.00 in0.0 mm 0.00 in0.0 mm
01:30 AM 49.5°F9.7°C 47.5°F8.6°C 93% 4.0 mph SW6.4 kmh SW 9.0 mph14.5 kmh 29.93 in1013.5 mb 0.00 in0.0 mm 0.00 in0.0 mm 0.00 in0.0 mm
01:33 AM 49.5°F9.7°C 47.5°F8.6°C 93% 4.0 mph SW6.4 kmh SW 9.0 mph14.5 kmh 29.93 in1013.5 mb 0.00 in0.0 mm 0.00 in0.0 mm 0.00 in0.0 mm
01:36 AM 49.5°F9.7°C 47.5°F8.6°C 93% 4.0 mph SW6.4 kmh SW 9.0 mph14.5 kmh 29.93 in1013.5 mb 0.00 in0.0 mm 0.00 in0.0 mm 0.00 in0.0 mm
01:39 AM 49.5°F9.7°C 47.5°F8.6°C 93% 5.0 mph SW8.0 kmh SW 9.0 mph14.5 kmh 29.94 in1013.9 mb 0.00 in0.0 mm 0.00 in0.0 mm 0.00 in0.0 mm
01:42 AM 49.5°F9.7°C 47.5°F8.6°C 93% 5.0 mph SW8.0 kmh SW 9.0 mph14.5 kmh 29.94 in1013.9 mb 0.00 in0.0 mm 0.00 in0.0 mm 0.00 in0.0 mm
01:45 AM 49.5°F9.7°C 47.5°F8.6°C 93% 4.0 mph SW6.4 kmh SW 9.0 mph14.5 kmh 29.94 in1013.9 mb 0.00 in0.0 mm 0.00 in0.0 mm 0.00 in0.0 mm
01:48 AM 49.5°F9.7°C 47.5°F8.6°C 93% 5.0 mph SW8.0 kmh SW 10.0 mph16.1 kmh 29.94 in1013.9 mb 0.00 in0.0 mm 0.00 in0.0 mm 0.00 in0.0 mm
01:51 AM 49.5°F9.7°C 47.5°F8.6°C 93% 5.0 mph WSW8.0 kmh WSW 10.0 mph16.1 kmh 29.94 in1013.9 mb 0.00 in0.0 mm 0.00 in0.0 mm 0.00 in0.0 mm
01:54 AM 49.5°F9.7°C 47.5°F8.6°C 93% 6.0 mph WSW9.7 kmh WSW 11.0 mph17.7 kmh 29.94 in1013.9 mb 0.00 in0.0 mm 0.00 in0.0 mm 0.00 in0.0 mm
01:57 AM 49.5°F9.7°C 47.5°F8.6°C 93% 6.0 mph SW9.7 kmh SW 11.0 mph17.7 kmh 29.94 in1013.9 mb 0.00 in0.0 mm 0.00 in0.0 mm 0.00 in0.0 mm
02:00 AM 49.5°F9.7°C 47.5°F8.6°C 93% 5.0 mph SW8.0 kmh SW 11.0 mph17.7 kmh 29.94 in1013.9 mb 0.00 in0.0 mm 0.00 in0.0 mm 0.00 in0.0 mm
02:03 AM 49.5°F9.7°C 47.5°F8.6°C 93% 5.0 mph WSW8.0 kmh WSW 11.0 mph17.7 kmh 29.94 in1013.9 mb 0.00 in0.0 mm 0.00 in0.0 mm 0.00 in0.0 mm
02:06 AM 49.5°F9.7°C 47.5°F8.6°C 93% 5.0 mph SW8.0 kmh SW 11.0 mph17.7 kmh 29.94 in1013.9 mb 0.00 in0.0 mm 0.00 in0.0 mm 0.00 in0.0 mm
02:09 AM 49.6°F9.8°C 47.7°F8.7°C 93% 4.0 mph WSW6.4 kmh WSW 8.0 mph12.9 kmh 29.94 in1013.9 mb 0.00 in0.0 mm 0.00 in0.0 mm 0.00 in0.0 mm
02:12 AM 49.6°F9.8°C 47.7°F8.7°C 93% 4.0 mph SW6.4 kmh SW 8.0 mph12.9 kmh 29.94 in1013.9 mb 0.00 in0.0 mm 0.00 in0.0 mm 0.00 in0.0 mm
02:15 AM 49.6°F9.8°C 47.7°F8.7°C 93% 4.0 mph SW6.4 kmh SW 8.0 mph12.9 kmh 29.94 in1013.9 mb 0.00 in0.0 mm 0.00 in0.0 mm 0.00 in0.0 mm
02:18 AM 49.6°F9.8°C 47.7°F8.7°C 93% 5.0 mph SW8.0 kmh SW 9.0 mph14.5 kmh 29.94 in1013.9 mb 0.00 in0.0 mm 0.00 in0.0 mm 0.00 in0.0 mm
02:21 AM 49.6°F9.8°C 47.7°F8.7°C 93% 5.0 mph WSW8.0 kmh WSW 9.0 mph14.5 kmh 29.94 in1013.9 mb 0.00 in0.0 mm 0.00 in0.0 mm 0.00 in0.0 mm
02:24 AM 49.6°F9.8°C 47.7°F8.7°C 93% 5.0 mph WSW8.0 kmh WSW 9.0 mph14.5 kmh 29.94 in1013.9 mb 0.00 in0.0 mm 0.00 in0.0 mm 0.00 in0.0 mm
02:27 AM 49.6°F9.8°C 47.7°F8.7°C 93% 5.0 mph WSW8.0 kmh WSW 9.0 mph14.5 kmh 29.94 in1013.9 mb 0.00 in0.0 mm 0.00 in0.0 mm 0.00 in0.0 mm
02:30 AM 49.6°F9.8°C 47.7°F8.7°C 93% 4.0 mph WSW6.4 kmh WSW 8.0 mph12.9 kmh 29.94 in1013.9 mb 0.00 in0.0 mm 0.00 in0.0 mm 0.00 in0.0 mm
02:33 AM 49.6°F9.8°C 47.8°F8.8°C 93% 5.0 mph WSW8.0 kmh WSW 9.0 mph14.5 kmh 29.94 in1013.9 mb 0.00 in0.0 mm 0.00 in0.0 mm 0.00 in0.0 mm
02:36 AM 49.6°F9.8°C 47.7°F8.7°C 93% 4.0 mph WSW6.4 kmh WSW 9.0 mph14.5 kmh 29.94 in1013.9 mb 0.00 in0.0 mm 0.00 in0.0 mm 0.00 in0.0 mm
02:39 AM 49.6°F9.8°C 47.8°F8.8°C 93% 5.0 mph WSW8.0 kmh WSW 9.0 mph14.5 kmh 29.94 in1013.9 mb 0.00 in0.0 mm 0.00 in0.0 mm 0.00 in0.0 mm
02:42 AM 49.6°F9.8°C 47.7°F8.7°C 93% 4.0 mph WSW6.4 kmh WSW 9.0 mph14.5 kmh 29.94 in1013.9 mb 0.01 in0.3 mm 0.20 in5.1 mm 0.01 in0.3 mm
02:45 AM 49.6°F9.8°C 47.8°F8.8°C 93% 4.0 mph WSW6.4 kmh WSW 9.0 mph14.5 kmh 29.94 in1013.9 mb 0.01 in0.3 mm 0.00 in0.0 mm 0.01 in0.3 mm
02:48 AM 49.6°F9.8°C 47.7°F8.7°C 93% 4.0 mph WSW6.4 kmh WSW 9.0 mph14.5 kmh 29.94 in1013.9 mb 0.01 in0.3 mm 0.00 in0.0 mm 0.01 in0.3 mm
02:51 AM 49.6°F9.8°C 47.7°F8.7°C 93% 3.0 mph SW4.8 kmh SW 7.0 mph11.3 kmh 29.93 in1013.5 mb 0.01 in0.3 mm 0.00 in0.0 mm 0.01 in0.3 mm
02:54 AM 49.6°F9.8°C 47.7°F8.7°C 93% 3.0 mph SW4.8 kmh SW 8.0 mph12.9 kmh 29.93 in1013.5 mb 0.01 in0.3 mm 0.00 in0.0 mm 0.01 in0.3 mm
02:57 AM 49.6°F9.8°C 48.0°F8.9°C 94% 3.0 mph SW4.8 kmh SW 8.0 mph12.9 kmh 29.93 in1013.5 mb 0.01 in0.3 mm 0.00 in0.0 mm 0.01 in0.3 mm
03:00 AM 49.6°F9.8°C 48.0°F8.9°C 94% 3.0 mph SW4.8 kmh SW 8.0 mph12.9 kmh 29.93 in1013.5 mb 0.01 in0.3 mm 0.00 in0.0 mm 0.01 in0.3 mm
03:03 AM 49.6°F9.8°C 48.0°F8.9°C 94% 2.0 mph SW3.2 kmh SW 6.0 mph9.7 kmh 29.93 in1013.5 mb 0.01 in0.3 mm 0.00 in0.0 mm 0.01 in0.3 mm
03:06 AM 49.6°F9.8°C 48.0°F8.9°C 94% 3.0 mph SW4.8 kmh SW 7.0 mph11.3 kmh 29.93 in1013.5 mb 0.01 in0.3 mm 0.00 in0.0 mm 0.01 in0.3 mm
03:09 AM 49.6°F9.8°C 48.0°F8.9°C 94% 3.0 mph SW4.8 kmh SW 7.0 mph11.3 kmh 29.93 in1013.5 mb 0.01 in0.3 mm 0.00 in0.0 mm 0.01 in0.3 mm
03:12 AM 49.6°F9.8°C 48.0°F8.9°C 94% 3.0 mph SW4.8 kmh SW 7.0 mph11.3 kmh 29.93 in1013.5 mb 0.01 in0.3 mm 0.00 in0.0 mm 0.01 in0.3 mm
03:15 AM 49.6°F9.8°C 48.0°F8.9°C 94% 3.0 mph SW4.8 kmh SW 7.0 mph11.3 kmh 29.93 in1013.5 mb 0.01 in0.3 mm 0.00 in0.0 mm 0.01 in0.3 mm
03:18 AM 49.6°F9.8°C 48.0°F8.9°C 94% 4.0 mph SSW6.4 kmh SSW 8.0 mph12.9 kmh 29.93 in1013.5 mb 0.01 in0.3 mm 0.00 in0.0 mm 0.01 in0.3 mm
03:21 AM 49.6°F9.8°C 48.0°F8.9°C 94% 4.0 mph SSW6.4 kmh SSW 8.0 mph12.9 kmh 29.92 in1013.2 mb 0.01 in0.3 mm 0.00 in0.0 mm 0.01 in0.3 mm
03:24 AM 49.6°F9.8°C 48.0°F8.9°C 94% 4.0 mph SSW6.4 kmh SSW 8.0 mph12.9 kmh 29.92 in1013.2 mb 0.01 in0.3 mm 0.00 in0.0 mm 0.01 in0.3 mm
03:27 AM 49.6°F9.8°C 48.0°F8.9°C 94% 4.0 mph S6.4 kmh S 7.0 mph11.3 kmh 29.92 in1013.2 mb 0.01 in0.3 mm 0.00 in0.0 mm 0.01 in0.3 mm
03:30 AM 49.6°F9.8°C 48.0°F8.9°C 94% 4.0 mph S6.4 kmh S 7.0 mph11.3 kmh 29.92 in1013.2 mb 0.01 in0.3 mm 0.00 in0.0 mm 0.01 in0.3 mm
03:33 AM 49.6°F9.8°C 48.0°F8.9°C 94% 4.0 mph S6.4 kmh S 7.0 mph11.3 kmh 29.92 in1013.2 mb 0.01 in0.3 mm 0.00 in0.0 mm 0.01 in0.3 mm
03:36 AM 49.6°F9.8°C 48.0°F8.9°C 94% 4.0 mph SSW6.4 kmh SSW 7.0 mph11.3 kmh 29.92 in1013.2 mb 0.01 in0.3 mm 0.00 in0.0 mm 0.01 in0.3 mm
03:39 AM 49.5°F9.7°C 47.8°F8.8°C 94% 4.0 mph SW6.4 kmh SW 10.0 mph16.1 kmh 29.92 in1013.2 mb 0.02 in0.5 mm 0.20 in5.1 mm 0.02 in0.5 mm
03:42 AM 49.5°F9.7°C 47.8°F8.8°C 94% 4.0 mph SW6.4 kmh SW 10.0 mph16.1 kmh 29.92 in1013.2 mb 0.01 in0.3 mm 0.00 in0.0 mm 0.02 in0.5 mm
03:45 AM 49.5°F9.7°C 47.8°F8.8°C 94% 5.0 mph SW8.0 kmh SW 10.0 mph16.1 kmh 29.92 in1013.2 mb 0.01 in0.3 mm 0.00 in0.0 mm 0.02 in0.5 mm
03:48 AM 49.5°F9.7°C 47.7°F8.7°C 94% 5.0 mph SW8.0 kmh SW 10.0 mph16.1 kmh 29.93 in1013.5 mb 0.01 in0.3 mm 0.00 in0.0 mm 0.02 in0.5 mm
03:51 AM 49.5°F9.7°C 47.7°F8.7°C 94% 5.0 mph SW8.0 kmh SW 9.0 mph14.5 kmh 29.92 in1013.2 mb 0.01 in0.3 mm 0.00 in0.0 mm 0.02 in0.5 mm
03:54 AM 49.5°F9.7°C 47.7°F8.7°C 94% 4.0 mph SW6.4 kmh SW 10.0 mph16.1 kmh 29.92 in1013.2 mb 0.01 in0.3 mm 0.00 in0.0 mm 0.02 in0.5 mm
03:57 AM 49.5°F9.7°C 47.7°F8.7°C 94% 5.0 mph SW8.0 kmh SW 10.0 mph16.1 kmh 29.92 in1013.2 mb 0.01 in0.3 mm 0.00 in0.0 mm 0.02 in0.5 mm
04:00 AM 49.5°F9.7°C 47.7°F8.7°C 94% 4.0 mph SW6.4 kmh SW 10.0 mph16.1 kmh 29.92 in1013.2 mb 0.01 in0.3 mm 0.00 in0.0 mm 0.02 in0.5 mm
04:03 AM 49.5°F9.7°C 47.7°F8.7°C 94% 4.0 mph SW6.4 kmh SW 10.0 mph16.1 kmh 29.92 in1013.2 mb 0.02 in0.5 mm 0.20 in5.1 mm 0.02 in0.5 mm
04:06 AM 49.5°F9.7°C 47.7°F8.7°C 94% 4.0 mph SW6.4 kmh SW 10.0 mph16.1 kmh 29.92 in1013.2 mb 0.02 in0.5 mm 0.00 in0.0 mm 0.02 in0.5 mm
04:09 AM 49.5°F9.7°C 47.7°F8.7°C 94% 4.0 mph SW6.4 kmh SW 8.0 mph12.9 kmh 29.92 in1013.2 mb 0.02 in0.5 mm 0.00 in0.0 mm 0.03 in0.8 mm
04:12 AM 49.5°F9.7°C 47.7°F8.7°C 94% 4.0 mph SW6.4 kmh SW 8.0 mph12.9 kmh 29.92 in1013.2 mb 0.02 in0.5 mm 0.00 in0.0 mm 0.03 in0.8 mm
04:15 AM 49.5°F9.7°C 47.7°F8.7°C 94% 4.0 mph SW6.4 kmh SW 8.0 mph12.9 kmh 29.92 in1013.2 mb 0.02 in0.5 mm 0.00 in0.0 mm 0.03 in0.8 mm
04:18 AM 49.5°F9.7°C 47.7°F8.7°C 94% 4.0 mph SW6.4 kmh SW 8.0 mph12.9 kmh 29.92 in1013.2 mb 0.03 in0.8 mm 0.20 in5.1 mm 0.04 in1.0 mm
04:21 AM 49.5°F9.7°C 47.8°F8.8°C 94% 3.0 mph SSW4.8 kmh SSW 7.0 mph11.3 kmh 29.92 in1013.2 mb 0.03 in0.8 mm 0.00 in0.0 mm 0.04 in1.0 mm
04:24 AM 49.5°F9.7°C 47.8°F8.8°C 94% 4.0 mph SSW6.4 kmh SSW 7.0 mph11.3 kmh 29.92 in1013.2 mb 0.03 in0.8 mm 0.00 in0.0 mm 0.04 in1.0 mm
04:27 AM 49.5°F9.7°C 47.8°F8.8°C 94% 3.0 mph SSW4.8 kmh SSW 7.0 mph11.3 kmh 29.92 in1013.2 mb 0.03 in0.8 mm 0.00 in0.0 mm 0.04 in1.0 mm
04:30 AM 49.5°F9.7°C 47.8°F8.8°C 94% 3.0 mph SW4.8 kmh SW 7.0 mph11.3 kmh 29.92 in1013.2 mb 0.04 in1.0 mm 0.20 in5.1 mm 0.05 in1.3 mm
04:33 AM 49.5°F9.7°C 47.7°F8.7°C 94% 4.0 mph SW6.4 kmh SW 8.0 mph12.9 kmh 29.92 in1013.2 mb 0.04 in1.0 mm 0.00 in0.0 mm 0.05 in1.3 mm
04:36 AM 49.3°F9.6°C 47.7°F8.7°C 94% 4.0 mph SW6.4 kmh SW 8.0 mph12.9 kmh 29.92 in1013.2 mb 0.05 in1.3 mm 0.20 in5.1 mm 0.06 in1.5 mm
04:39 AM 49.3°F9.6°C 47.5°F8.6°C 94% 4.0 mph SW6.4 kmh SW 10.0 mph16.1 kmh 29.92 in1013.2 mb 0.04 in1.0 mm 0.00 in0.0 mm 0.06 in1.5 mm
04:42 AM 49.1°F9.5°C 47.5°F8.6°C 94% 5.0 mph SW8.0 kmh SW 10.0 mph16.1 kmh 29.92 in1013.2 mb 0.05 in1.3 mm 0.20 in5.1 mm 0.06 in1.5 mm
04:45 AM 49.1°F9.5°C 47.5°F8.6°C 94% 5.0 mph WSW8.0 kmh WSW 10.0 mph16.1 kmh 29.92 in1013.2 mb 0.05 in1.3 mm 0.00 in0.0 mm 0.06 in1.5 mm
04:48 AM 48.9°F9.4°C 47.3°F8.5°C 94% 6.0 mph WSW9.7 kmh WSW 11.0 mph17.7 kmh 29.91 in1012.9 mb 0.05 in1.3 mm 0.00 in0.0 mm 0.06 in1.5 mm
04:51 AM 48.9°F9.4°C 47.3°F8.5°C 94% 6.0 mph WSW9.7 kmh WSW 11.0 mph17.7 kmh 29.91 in1012.9 mb 0.05 in1.3 mm 0.00 in0.0 mm 0.06 in1.5 mm
04:54 AM 48.7°F9.3°C 47.1°F8.4°C 94% 6.0 mph WSW9.7 kmh WSW 11.0 mph17.7 kmh 29.91 in1012.9 mb 0.06 in1.5 mm 0.20 in5.1 mm 0.07 in1.8 mm
04:57 AM 48.7°F9.3°C 47.3°F8.5°C 95% 5.0 mph WSW8.0 kmh WSW 11.0 mph17.7 kmh 29.91 in1012.9 mb 0.06 in1.5 mm 0.00 in0.0 mm 0.07 in1.8 mm
05:00 AM 48.7°F9.3°C 47.3°F8.5°C 95% 5.0 mph WSW8.0 kmh WSW 11.0 mph17.7 kmh 29.91 in1012.9 mb 0.05 in1.3 mm 0.00 in0.0 mm 0.07 in1.8 mm
05:03 AM 48.6°F9.2°C 47.3°F8.5°C 95% 5.0 mph WSW8.0 kmh WSW 11.0 mph17.7 kmh 29.91 in1012.9 mb 0.06 in1.5 mm 0.20 in5.1 mm 0.08 in2.0 mm
05:06 AM 48.6°F9.2°C 47.3°F8.5°C 95% 5.0 mph WSW8.0 kmh WSW 11.0 mph17.7 kmh 29.91 in1012.9 mb 0.06 in1.5 mm 0.00 in0.0 mm 0.08 in2.0 mm
05:09 AM 48.6°F9.2°C 47.3°F8.5°C 95% 4.0 mph WSW6.4 kmh WSW 9.0 mph14.5 kmh 29.90 in1012.5 mb 0.05 in1.3 mm 0.00 in0.0 mm 0.08 in2.0 mm
05:12 AM 48.6°F9.2°C 46.9°F8.3°C 94% 4.0 mph SW6.4 kmh SW 9.0 mph14.5 kmh 29.90 in1012.5 mb 0.05 in1.3 mm 0.00 in0.0 mm 0.08 in2.0 mm
05:15 AM 48.6°F9.2°C 46.9°F8.3°C 94% 4.0 mph SW6.4 kmh SW 9.0 mph14.5 kmh 29.90 in1012.5 mb 0.06 in1.5 mm 0.20 in5.1 mm 0.09 in2.3 mm
05:18 AM 48.4°F9.1°C 47.1°F8.4°C 95% 3.0 mph SW4.8 kmh SW 7.0 mph11.3 kmh 29.90 in1012.5 mb 0.05 in1.3 mm 0.00 in0.0 mm 0.09 in2.3 mm
05:21 AM 48.4°F9.1°C 47.1°F8.4°C 95% 3.0 mph SW4.8 kmh SW 7.0 mph11.3 kmh 29.90 in1012.5 mb 0.05 in1.3 mm 0.00 in0.0 mm 0.09 in2.3 mm
05:24 AM 48.4°F9.1°C 47.1°F8.4°C 95% 3.0 mph SW4.8 kmh SW 5.0 mph8.0 kmh 29.90 in1012.5 mb 0.05 in1.3 mm 0.00 in0.0 mm 0.09 in2.3 mm
05:27 AM 48.4°F9.1°C 47.1°F8.4°C 95% 2.0 mph SW3.2 kmh SW 5.0 mph8.0 kmh 29.89 in1012.2 mb 0.05 in1.3 mm 0.00 in0.0 mm 0.09 in2.3 mm
05:30 AM 48.4°F9.1°C 47.1°F8.4°C 95% 2.0 mph SW3.2 kmh SW 5.0 mph8.0 kmh 29.89 in1012.2 mb 0.04 in1.0 mm 0.00 in0.0 mm 0.09 in2.3 mm
05:33 AM 48.4°F9.1°C 47.1°F8.4°C 95% 2.0 mph SW3.2 kmh SW 5.0 mph8.0 kmh 29.89 in1012.2 mb 0.05 in1.3 mm 0.20 in5.1 mm 0.09 in2.3 mm
05:36 AM 48.4°F9.1°C 47.1°F8.4°C 95% 2.0 mph SW3.2 kmh SW 5.0 mph8.0 kmh 29.89 in1012.2 mb 0.04 in1.0 mm 0.00 in0.0 mm 0.09 in2.3 mm
05:39 AM 48.4°F9.1°C 47.1°F8.4°C 95% 1.0 mph SW1.6 kmh SW 4.0 mph6.4 kmh 29.89 in1012.2 mb 0.04 in1.0 mm 0.00 in0.0 mm 0.09 in2.3 mm
05:42 AM 48.6°F9.2°C 47.1°F8.4°C 95% 2.0 mph SW3.2 kmh SW 5.0 mph8.0 kmh 29.89 in1012.2 mb 0.03 in0.8 mm 0.00 in0.0 mm 0.09 in2.3 mm
05:45 AM 48.6°F9.2°C 47.1°F8.4°C 95% 2.0 mph SSW3.2 kmh SSW 5.0 mph8.0 kmh 29.89 in1012.2 mb 0.03 in0.8 mm 0.00 in0.0 mm 0.09 in2.3 mm
05:48 AM 48.6°F9.2°C 47.3°F8.5°C 95% 2.0 mph SSW3.2 kmh SSW 5.0 mph8.0 kmh 29.89 in1012.2 mb 0.03 in0.8 mm 0.00 in0.0 mm 0.09 in2.3 mm
05:51 AM 48.6°F9.2°C 47.3°F8.5°C 95% 2.0 mph SSW3.2 kmh SSW 4.0 mph6.4 kmh 29.90 in1012.5 mb 0.02 in0.5 mm 0.00 in0.0 mm 0.09 in2.3 mm
05:54 AM 48.7°F9.3°C 47.3°F8.5°C 95% 2.0 mph SSW3.2 kmh SSW 3.0 mph4.8 kmh 29.90 in1012.5 mb 0.03 in0.8 mm 0.20 in5.1 mm 0.10 in2.5 mm
05:57 AM 48.7°F9.3°C 47.3°F8.5°C 95% 2.0 mph SSW3.2 kmh SSW 5.0 mph8.0 kmh 29.90 in1012.5 mb 0.03 in0.8 mm 0.00 in0.0 mm 0.10 in2.5 mm
06:00 AM 48.7°F9.3°C 47.3°F8.5°C 95% 3.0 mph S4.8 kmh S 5.0 mph8.0 kmh 29.89 in1012.2 mb 0.03 in0.8 mm 0.00 in0.0 mm 0.10 in2.5 mm
06:03 AM 48.7°F9.3°C 47.3°F8.5°C 95% 3.0 mph S4.8 kmh S 7.0 mph11.3 kmh 29.89 in1012.2 mb 0.03 in0.8 mm 0.00 in0.0 mm 0.11 in2.8 mm
06:06 AM 48.7°F9.3°C 47.3°F8.5°C 95% 4.0 mph S6.4 kmh S 7.0 mph11.3 kmh 29.89 in1012.2 mb 0.04 in1.0 mm 0.20 in5.1 mm 0.12 in3.0 mm
06:09 AM 48.7°F9.3°C 47.3°F8.5°C 95% 4.0 mph S6.4 kmh S 7.0 mph11.3 kmh 29.89 in1012.2 mb 0.05 in1.3 mm 0.20 in5.1 mm 0.13 in3.3 mm
06:12 AM 48.7°F9.3°C 47.3°F8.5°C 95% 4.0 mph S6.4 kmh S 6.0 mph9.7 kmh 29.89 in1012.2 mb 0.05 in1.3 mm 0.00 in0.0 mm 0.13 in3.3 mm
06:15 AM 48.7°F9.3°C 47.3°F8.5°C 95% 5.0 mph S8.0 kmh S 8.0 mph12.9 kmh 29.89 in1012.2 mb 0.05 in1.3 mm 0.00 in0.0 mm 0.13 in3.3 mm
06:18 AM 48.7°F9.3°C 47.3°F8.5°C 95% 5.0 mph S8.0 kmh S 9.0 mph14.5 kmh 29.88 in1011.9 mb 0.05 in1.3 mm 0.00 in0.0 mm 0.13 in3.3 mm
06:21 AM 48.7°F9.3°C 47.3°F8.5°C 95% 5.0 mph S8.0 kmh S 9.0 mph14.5 kmh 29.88 in1011.9 mb 0.05 in1.3 mm 0.00 in0.0 mm 0.13 in3.3 mm
06:24 AM 48.6°F9.2°C 47.3°F8.5°C 95% 5.0 mph S8.0 kmh S 9.0 mph14.5 kmh 29.89 in1012.2 mb 0.06 in1.5 mm 0.20 in5.1 mm 0.14 in3.6 mm
06:27 AM 48.6°F9.2°C 47.3°F8.5°C 95% 5.0 mph S8.0 kmh S 9.0 mph14.5 kmh 29.88 in1011.9 mb 0.06 in1.5 mm 0.00 in0.0 mm 0.15 in3.8 mm
06:30 AM 48.6°F9.2°C 47.3°F8.5°C 95% 5.0 mph S8.0 kmh S 9.0 mph14.5 kmh 29.88 in1011.9 mb 0.06 in1.5 mm 0.00 in0.0 mm 0.15 in3.8 mm
06:33 AM 48.6°F9.2°C 47.3°F8.5°C 95% 5.0 mph S8.0 kmh S 9.0 mph14.5 kmh 29.88 in1011.9 mb 0.06 in1.5 mm 0.00 in0.0 mm 0.15 in3.8 mm
06:36 AM 48.6°F9.2°C 47.3°F8.5°C 95% 5.0 mph S8.0 kmh S 9.0 mph14.5 kmh 29.89 in1012.2 mb 0.06 in1.5 mm 0.00 in0.0 mm 0.16 in4.1 mm
06:39 AM 48.6°F9.2°C 47.3°F8.5°C 95% 5.0 mph S8.0 kmh S 8.0 mph12.9 kmh 29.89 in1012.2 mb 0.06 in1.5 mm 0.00 in0.0 mm 0.16 in4.1 mm
06:42 AM 48.6°F9.2°C 47.3°F8.5°C 95% 5.0 mph S8.0 kmh S 9.0 mph14.5 kmh 29.88 in1011.9 mb 0.07 in1.8 mm 0.20 in5.1 mm 0.17 in4.3 mm
06:45 AM 48.6°F9.2°C 47.1°F8.4°C 95% 5.0 mph S8.0 kmh S 9.0 mph14.5 kmh 29.88 in1011.9 mb 0.07 in1.8 mm 0.00 in0.0 mm 0.17 in4.3 mm
06:48 AM 48.6°F9.2°C 47.5°F8.6°C 96% 5.0 mph S8.0 kmh S 9.0 mph14.5 kmh 29.88 in1011.9 mb 0.07 in1.8 mm 0.00 in0.0 mm 0.17 in4.3 mm
06:51 AM 48.6°F9.2°C 47.5°F8.6°C 96% 5.0 mph S8.0 kmh S 8.0 mph12.9 kmh 29.88 in1011.9 mb 0.07 in1.8 mm 0.00 in0.0 mm 0.17 in4.3 mm
06:54 AM 48.6°F9.2°C 47.5°F8.6°C 96% 5.0 mph S8.0 kmh S 9.0 mph14.5 kmh 29.88 in1011.9 mb 0.06 in1.5 mm 0.00 in0.0 mm 0.17 in4.3 mm
06:57 AM 48.6°F9.2°C 47.5°F8.6°C 96% 6.0 mph S9.7 kmh S 9.0 mph14.5 kmh 29.88 in1011.9 mb 0.06 in1.5 mm 0.00 in0.0 mm 0.17 in4.3 mm
07:00 AM 48.6°F9.2°C 47.5°F8.6°C 96% 6.0 mph SSE9.7 kmh SSE 9.0 mph14.5 kmh 29.88 in1011.9 mb 0.06 in1.5 mm 0.00 in0.0 mm 0.17 in4.3 mm
07:03 AM 48.6°F9.2°C 47.5°F8.6°C 96% 6.0 mph S9.7 kmh S 9.0 mph14.5 kmh 29.88 in1011.9 mb 0.06 in1.5 mm 0.00 in0.0 mm 0.17 in4.3 mm
07:06 AM 48.6°F9.2°C 47.5°F8.6°C 96% 5.0 mph S8.0 kmh S 8.0 mph12.9 kmh 29.87 in1011.5 mb 0.05 in1.3 mm 0.00 in0.0 mm 0.17 in4.3 mm
07:09 AM 48.6°F9.2°C 47.5°F8.6°C 96% 4.0 mph S6.4 kmh S 8.0 mph12.9 kmh 29.87 in1011.5 mb 0.05 in1.3 mm 0.00 in0.0 mm 0.17 in4.3 mm
07:12 AM 48.6°F9.2°C 47.5°F8.6°C 96% 4.0 mph SSE6.4 kmh SSE 7.0 mph11.3 kmh 29.87 in1011.5 mb 0.04 in1.0 mm 0.00 in0.0 mm 0.17 in4.3 mm
07:15 AM 48.6°F9.2°C 47.5°F8.6°C 96% 5.0 mph SSE8.0 kmh SSE 7.0 mph11.3 kmh 29.87 in1011.5 mb 0.04 in1.0 mm 0.00 in0.0 mm 0.17 in4.3 mm
07:18 AM 48.6°F9.2°C 47.5°F8.6°C 96% 5.0 mph SSE8.0 kmh SSE 7.0 mph11.3 kmh 29.87 in1011.5 mb 0.04 in1.0 mm 0.00 in0.0 mm 0.17 in4.3 mm
07:21 AM 48.6°F9.2°C 47.5°F8.6°C 96% 4.0 mph S6.4 kmh S 7.0 mph11.3 kmh 29.87 in1011.5 mb 0.04 in1.0 mm 0.00 in0.0 mm 0.17 in4.3 mm
07:24 AM 48.6°F9.2°C 47.5°F8.6°C 96% 4.0 mph S6.4 kmh S 7.0 mph11.3 kmh 29.87 in1011.5 mb 0.02 in0.5 mm 0.00 in0.0 mm 0.17 in4.3 mm
07:27 AM 48.6°F9.2°C 47.5°F8.6°C 96% 3.0 mph S4.8 kmh S 6.0 mph9.7 kmh 29.87 in1011.5 mb 0.03 in0.8 mm 0.20 in5.1 mm 0.18 in4.6 mm
07:30 AM 48.6°F9.2°C 47.5°F8.6°C 96% 2.0 mph SSW3.2 kmh SSW 5.0 mph8.0 kmh 29.87 in1011.5 mb 0.03 in0.8 mm 0.00 in0.0 mm 0.18 in4.6 mm
07:33 AM 48.4°F9.1°C 47.3°F8.5°C 96% 2.0 mph SSW3.2 kmh SSW 5.0 mph8.0 kmh 29.86 in1011.2 mb 0.03 in0.8 mm 0.00 in0.0 mm 0.18 in4.6 mm
07:36 AM 48.4°F9.1°C 47.3°F8.5°C 96% 3.0 mph S4.8 kmh S 5.0 mph8.0 kmh 29.86 in1011.2 mb 0.02 in0.5 mm 0.00 in0.0 mm 0.18 in4.6 mm
07:39 AM 48.4°F9.1°C 47.3°F8.5°C 96% 3.0 mph S4.8 kmh S 5.0 mph8.0 kmh 29.86 in1011.2 mb 0.03 in0.8 mm 0.20 in5.1 mm 0.19 in4.8 mm
07:42 AM 48.4°F9.1°C 47.3°F8.5°C 96% 4.0 mph S6.4 kmh S 9.0 mph14.5 kmh 29.86 in1011.2 mb 0.02 in0.5 mm 0.00 in0.0 mm 0.19 in4.8 mm
07:45 AM 48.4°F9.1°C 47.3°F8.5°C 96% 4.0 mph S6.4 kmh S 9.0 mph14.5 kmh 29.86 in1011.2 mb 0.02 in0.5 mm 0.00 in0.0 mm 0.19 in4.8 mm
07:48 AM 48.4°F9.1°C 47.3°F8.5°C 96% 4.0 mph S6.4 kmh S 9.0 mph14.5 kmh 29.86 in1011.2 mb 0.02 in0.5 mm 0.00 in0.0 mm 0.19 in4.8 mm
07:51 AM 48.4°F9.1°C 47.3°F8.5°C 96% 5.0 mph S8.0 kmh S 8.0 mph12.9 kmh 29.86 in1011.2 mb 0.02 in0.5 mm 0.00 in0.0 mm 0.19 in4.8 mm
07:54 AM 48.4°F9.1°C 47.3°F8.5°C 96% 5.0 mph S8.0 kmh S 8.0 mph12.9 kmh 29.86 in1011.2 mb 0.02 in0.5 mm 0.00 in0.0 mm 0.19 in4.8 mm
07:57 AM 48.2°F9.0°C 47.1°F8.4°C 96% 6.0 mph S9.7 kmh S 9.0 mph14.5 kmh 29.85 in1010.8 mb 0.03 in0.8 mm 0.20 in5.1 mm 0.20 in5.1 mm
08:00 AM 48.4°F9.1°C 47.3°F8.5°C 96% 6.0 mph S9.7 kmh S 9.0 mph14.5 kmh 29.85 in1010.8 mb 0.03 in0.8 mm 0.00 in0.0 mm 0.20 in5.1 mm
08:03 AM 48.4°F9.1°C 47.3°F8.5°C 96% 6.0 mph S9.7 kmh S 9.0 mph14.5 kmh 29.85 in1010.8 mb 0.04 in1.0 mm 0.20 in5.1 mm 0.20 in5.1 mm
08:06 AM 48.4°F9.1°C 47.3°F8.5°C 96% 6.0 mph SSE9.7 kmh SSE 9.0 mph14.5 kmh 29.85 in1010.8 mb 0.04 in1.0 mm 0.00 in0.0 mm 0.20 in5.1 mm
08:09 AM 48.2°F9.0°C 47.1°F8.4°C 96% 5.0 mph SSE8.0 kmh SSE 9.0 mph14.5 kmh 29.85 in1010.8 mb 0.04 in1.0 mm 0.00 in0.0 mm 0.21 in5.3 mm
08:12 AM 48.2°F9.0°C 47.1°F8.4°C 96% 4.0 mph S6.4 kmh S 7.0 mph11.3 kmh 29.85 in1010.8 mb 0.04 in1.0 mm 0.00 in0.0 mm 0.21 in5.3 mm
08:15 AM 48.2°F9.0°C 47.1°F8.4°C 96% 4.0 mph S6.4 kmh S 7.0 mph11.3 kmh 29.84 in1010.5 mb 0.04 in1.0 mm 0.00 in0.0 mm 0.21 in5.3 mm
08:18 AM 48.4°F9.1°C 47.3°F8.5°C 96% 4.0 mph SSE6.4 kmh SSE 6.0 mph9.7 kmh 29.85 in1010.8 mb 0.04 in1.0 mm 0.00 in0.0 mm 0.21 in5.3 mm
08:21 AM 48.2°F9.0°C 47.1°F8.4°C 96% 4.0 mph SSE6.4 kmh SSE 6.0 mph9.7 kmh 29.84 in1010.5 mb 0.05 in1.3 mm 0.20 in5.1 mm 0.22 in5.6 mm
08:24 AM 48.0°F8.9°C 46.9°F8.3°C 96% 4.0 mph SSE6.4 kmh SSE 7.0 mph11.3 kmh 29.85 in1010.8 mb 0.06 in1.5 mm 0.20 in5.1 mm 0.23 in5.8 mm
08:27 AM 48.0°F8.9°C 46.9°F8.3°C 96% 4.0 mph SSE6.4 kmh SSE 7.0 mph11.3 kmh 29.85 in1010.8 mb 0.05 in1.3 mm 0.00 in0.0 mm 0.23 in5.8 mm
08:30 AM 48.0°F8.9°C 46.9°F8.3°C 96% 4.0 mph SSE6.4 kmh SSE 7.0 mph11.3 kmh 29.84 in1010.5 mb 0.06 in1.5 mm 0.20 in5.1 mm 0.24 in6.1 mm
08:33 AM 48.0°F8.9°C 46.9°F8.3°C 96% 5.0 mph SSE8.0 kmh SSE 6.0 mph9.7 kmh 29.84 in1010.5 mb 0.07 in1.8 mm 0.20 in5.1 mm 0.25 in6.4 mm
08:36 AM 47.8°F8.8°C 46.8°F8.2°C 96% 5.0 mph SSE8.0 kmh SSE 8.0 mph12.9 kmh 29.84 in1010.5 mb 0.09 in2.3 mm 0.40 in10.2 mm 0.27 in6.9 mm
08:39 AM 47.8°F8.8°C 46.8°F8.2°C 96% 4.0 mph SSE6.4 kmh SSE 8.0 mph12.9 kmh 29.84 in1010.5 mb 0.09 in2.3 mm 0.00 in0.0 mm 0.28 in7.1 mm
08:42 AM 47.8°F8.8°C 46.8°F8.2°C 96% 4.0 mph SSE6.4 kmh SSE 8.0 mph12.9 kmh 29.84 in1010.5 mb 0.09 in2.3 mm 0.00 in0.0 mm 0.28 in7.1 mm
08:45 AM 47.8°F8.8°C 46.8°F8.2°C 96% 3.0 mph SSE4.8 kmh SSE 6.0 mph9.7 kmh 29.84 in1010.5 mb 0.10 in2.5 mm 0.20 in5.1 mm 0.29 in7.4 mm
08:48 AM 47.8°F8.8°C 46.8°F8.2°C 96% 3.0 mph SE4.8 kmh SE 5.0 mph8.0 kmh 29.84 in1010.5 mb 0.10 in2.5 mm 0.00 in0.0 mm 0.29 in7.4 mm
08:51 AM 47.8°F8.8°C 46.8°F8.2°C 96% 2.0 mph SE3.2 kmh SE 4.0 mph6.4 kmh 29.84 in1010.5 mb 0.11 in2.8 mm 0.20 in5.1 mm 0.30 in7.6 mm
08:54 AM 47.8°F8.8°C 46.8°F8.2°C 96% 3.0 mph SE4.8 kmh SE 4.0 mph6.4 kmh 29.84 in1010.5 mb 0.12 in3.0 mm 0.20 in5.1 mm 0.31 in7.9 mm
08:57 AM 47.8°F8.8°C 46.8°F8.2°C 96% 2.0 mph SE3.2 kmh SE 4.0 mph6.4 kmh 29.83 in1010.2 mb 0.11 in2.8 mm 0.00 in0.0 mm 0.31 in7.9 mm
09:00 AM 47.8°F8.8°C 46.8°F8.2°C 96% 1.0 mph SE1.6 kmh SE 4.0 mph6.4 kmh 29.84 in1010.5 mb 0.12 in3.0 mm 0.01 in0.3 mm 0.31 in7.9 mm
09:03 AM 47.7°F8.7°C 46.6°F8.1°C 96% 1.0 mph SE1.6 kmh SE 3.0 mph4.8 kmh 29.85 in1010.8 mb 0.12 in3.0 mm 0.00 in0.0 mm 0.32 in8.1 mm
09:06 AM 47.7°F8.7°C 46.6°F8.1°C 96% 1.0 mph SSE1.6 kmh SSE 2.0 mph3.2 kmh 29.84 in1010.5 mb 0.13 in3.3 mm 0.20 in5.1 mm 0.34 in8.6 mm
09:09 AM 47.7°F8.7°C 46.6°F8.1°C 96% 1.0 mph S1.6 kmh S 4.0 mph6.4 kmh 29.84 in1010.5 mb 0.15 in3.8 mm 0.40 in10.2 mm 0.36 in9.1 mm
09:12 AM 47.8°F8.8°C 46.8°F8.2°C 96% 2.0 mph S3.2 kmh S 4.0 mph6.4 kmh 29.84 in1010.5 mb 0.16 in4.1 mm 0.20 in5.1 mm 0.37 in9.4 mm
09:15 AM 47.8°F8.8°C 46.8°F8.2°C 96% 2.0 mph S3.2 kmh S 4.0 mph6.4 kmh 29.83 in1010.2 mb 0.17 in4.3 mm 0.20 in5.1 mm 0.38 in9.7 mm
09:18 AM 47.8°F8.8°C 46.8°F8.2°C 96% 2.0 mph S3.2 kmh S 4.0 mph6.4 kmh 29.83 in1010.2 mb 0.17 in4.3 mm 0.00 in0.0 mm 0.39 in9.9 mm
09:21 AM 47.8°F8.8°C 46.8°F8.2°C 96% 2.0 mph S3.2 kmh S 3.0 mph4.8 kmh 29.83 in1010.2 mb 0.17 in4.3 mm 0.00 in0.0 mm 0.39 in9.9 mm
09:24 AM 47.8°F8.8°C 46.8°F8.2°C 96% 1.0 mph S1.6 kmh S 3.0 mph4.8 kmh 29.83 in1010.2 mb 0.16 in4.1 mm 0.00 in0.0 mm 0.39 in9.9 mm
09:27 AM 47.8°F8.8°C 46.8°F8.2°C 96% 1.0 mph S1.6 kmh S 3.0 mph4.8 kmh 29.83 in1010.2 mb 0.17 in4.3 mm 0.20 in5.1 mm 0.39 in9.9 mm
09:30 AM 47.8°F8.8°C 46.8°F8.2°C 96% Calm Calm 3.0 mph4.8 kmh 29.82 in1009.8 mb 0.16 in4.1 mm 0.00 in0.0 mm 0.40 in10.2 mm
09:33 AM 47.8°F8.8°C 46.8°F8.2°C 96% 1.0 mph SE1.6 kmh SE 3.0 mph4.8 kmh 29.82 in1009.8 mb 0.14 in3.6 mm 0.00 in0.0 mm 0.40 in10.2 mm
09:36 AM 47.8°F8.8°C 46.8°F8.2°C 96% 1.0 mph E1.6 kmh E 3.0 mph4.8 kmh 29.83 in1010.2 mb 0.13 in3.3 mm 0.00 in0.0 mm 0.40 in10.2 mm
09:39 AM 47.8°F8.8°C 46.8°F8.2°C 96% 2.0 mph NE3.2 kmh NE 3.0 mph4.8 kmh 29.82 in1009.8 mb 0.13 in3.3 mm 0.00 in0.0 mm 0.41 in10.4 mm
09:42 AM 47.8°F8.8°C 46.8°F8.2°C 96% 2.0 mph NE3.2 kmh NE 4.0 mph6.4 kmh 29.82 in1009.8 mb 0.14 in3.6 mm 0.20 in5.1 mm 0.42 in10.7 mm
09:45 AM 47.8°F8.8°C 46.8°F8.2°C 96% 2.0 mph NE3.2 kmh NE 5.0 mph8.0 kmh 29.82 in1009.8 mb 0.13 in3.3 mm 0.00 in0.0 mm 0.42 in10.7 mm
09:48 AM 47.8°F8.8°C 46.8°F8.2°C 96% 3.0 mph NE4.8 kmh NE 6.0 mph9.7 kmh 29.82 in1009.8 mb 0.13 in3.3 mm 0.00 in0.0 mm 0.43 in10.9 mm
09:51 AM 47.8°F8.8°C 46.8°F8.2°C 96% 3.0 mph NE4.8 kmh NE 6.0 mph9.7 kmh 29.82 in1009.8 mb 0.14 in3.6 mm 0.20 in5.1 mm 0.44 in11.2 mm
09:54 AM 48.0°F8.9°C 46.9°F8.3°C 96% 3.0 mph NE4.8 kmh NE 6.0 mph9.7 kmh 29.81 in1009.5 mb 0.14 in3.6 mm 0.00 in0.0 mm 0.45 in11.4 mm
09:57 AM 48.0°F8.9°C 46.9°F8.3°C 96% 3.0 mph NE4.8 kmh NE 6.0 mph9.7 kmh 29.81 in1009.5 mb 0.16 in4.1 mm 0.40 in10.2 mm 0.46 in11.7 mm
10:00 AM 48.0°F8.9°C 46.9°F8.3°C 96% 3.0 mph NE4.8 kmh NE 6.0 mph9.7 kmh 29.81 in1009.5 mb 0.15 in3.8 mm 0.00 in0.0 mm 0.46 in11.7 mm
10:03 AM 48.0°F8.9°C 46.9°F8.3°C 96% 3.0 mph NE4.8 kmh NE 6.0 mph9.7 kmh 29.81 in1009.5 mb 0.15 in3.8 mm 0.00 in0.0 mm 0.47 in11.9 mm
10:06 AM 48.0°F8.9°C 46.9°F8.3°C 96% 3.0 mph NNE4.8 kmh NNE 7.0 mph11.3 kmh 29.81 in1009.5 mb 0.13 in3.3 mm 0.00 in0.0 mm 0.48 in12.2 mm
10:09 AM 48.0°F8.9°C 46.9°F8.3°C 96% 4.0 mph N6.4 kmh N 9.0 mph14.5 kmh 29.82 in1009.8 mb 0.12 in3.0 mm 0.00 in0.0 mm 0.48 in12.2 mm
10:12 AM 48.0°F8.9°C 46.9°F8.3°C 96% 5.0 mph N8.0 kmh N 9.0 mph14.5 kmh 29.81 in1009.5 mb 0.12 in3.0 mm 0.00 in0.0 mm 0.49 in12.4 mm
10:15 AM 48.0°F8.9°C 46.9°F8.3°C 96% 6.0 mph N9.7 kmh N 9.0 mph14.5 kmh 29.81 in1009.5 mb 0.11 in2.8 mm 0.00 in0.0 mm 0.49 in12.4 mm
10:18 AM 48.0°F8.9°C 46.9°F8.3°C 96% 6.0 mph N9.7 kmh N 9.0 mph14.5 kmh 29.81 in1009.5 mb 0.11 in2.8 mm 0.00 in0.0 mm 0.50 in12.7 mm
10:21 AM 47.8°F8.8°C 46.8°F8.2°C 96% 5.0 mph N8.0 kmh N 9.0 mph14.5 kmh 29.81 in1009.5 mb 0.11 in2.8 mm 0.00 in0.0 mm 0.50 in12.7 mm
10:24 AM 48.0°F8.9°C 46.9°F8.3°C 96% 5.0 mph N8.0 kmh N 9.0 mph14.5 kmh 29.81 in1009.5 mb 0.11 in2.8 mm 0.00 in0.0 mm 0.50 in12.7 mm
10:27 AM 48.0°F8.9°C 46.9°F8.3°C 96% 4.0 mph N6.4 kmh N 8.0 mph12.9 kmh 29.80 in1009.1 mb 0.11 in2.8 mm 0.00 in0.0 mm 0.50 in12.7 mm
10:30 AM 48.0°F8.9°C 47.1°F8.4°C 97% 3.0 mph N4.8 kmh N 6.0 mph9.7 kmh 29.80 in1009.1 mb 0.10 in2.5 mm 0.00 in0.0 mm 0.50 in12.7 mm
10:33 AM 48.0°F8.9°C 47.3°F8.5°C 97% 3.0 mph N4.8 kmh N 6.0 mph9.7 kmh 29.80 in1009.1 mb 0.11 in2.8 mm 0.20 in5.1 mm 0.51 in13.0 mm
10:36 AM 48.0°F8.9°C 47.3°F8.5°C 97% 4.0 mph N6.4 kmh N 6.0 mph9.7 kmh 29.80 in1009.1 mb 0.11 in2.8 mm 0.00 in0.0 mm 0.51 in13.0 mm
10:39 AM 48.2°F9.0°C 47.3°F8.5°C 97% 4.0 mph N6.4 kmh N 6.0 mph9.7 kmh 29.80 in1009.1 mb 0.10 in2.5 mm 0.00 in0.0 mm 0.51 in13.0 mm
10:42 AM 48.4°F9.1°C 47.7°F8.7°C 97% 4.0 mph N6.4 kmh N 7.0 mph11.3 kmh 29.79 in1008.8 mb 0.09 in2.3 mm 0.00 in0.0 mm 0.51 in13.0 mm
10:45 AM 48.6°F9.2°C 47.7°F8.7°C 97% 5.0 mph N8.0 kmh N 10.0 mph16.1 kmh 29.79 in1008.8 mb 0.09 in2.3 mm 0.00 in0.0 mm 0.51 in13.0 mm
10:48 AM 48.6°F9.2°C 47.5°F8.6°C 96% 5.0 mph N8.0 kmh N 11.0 mph17.7 kmh 29.79 in1008.8 mb 0.08 in2.0 mm 0.00 in0.0 mm 0.51 in13.0 mm
10:51 AM 48.6°F9.2°C 47.8°F8.8°C 97% 6.0 mph N9.7 kmh N 11.0 mph17.7 kmh 29.79 in1008.8 mb 0.07 in1.8 mm 0.00 in0.0 mm 0.51 in13.0 mm
10:54 AM 48.7°F9.3°C 47.8°F8.8°C 97% 5.0 mph N8.0 kmh N 11.0 mph17.7 kmh 29.79 in1008.8 mb 0.06 in1.5 mm 0.00 in0.0 mm 0.51 in13.0 mm
10:57 AM 48.7°F9.3°C 47.8°F8.8°C 97% 5.0 mph N8.0 kmh N 10.0 mph16.1 kmh 29.79 in1008.8 mb 0.05 in1.3 mm 0.00 in0.0 mm 0.51 in13.0 mm
11:00 AM 48.7°F9.3°C 48.0°F8.9°C 97% 5.0 mph N8.0 kmh N 9.0 mph14.5 kmh 29.79 in1008.8 mb 0.04 in1.0 mm 0.00 in0.0 mm 0.51 in13.0 mm
11:03 AM 48.9°F9.4°C 48.0°F8.9°C 97% 5.0 mph NNE8.0 kmh NNE 8.0 mph12.9 kmh 29.79 in1008.8 mb 0.04 in1.0 mm 0.00 in0.0 mm 0.51 in13.0 mm
11:06 AM 49.1°F9.5°C 48.2°F9.0°C 97% 4.0 mph N6.4 kmh N 8.0 mph12.9 kmh 29.78 in1008.5 mb 0.03 in0.8 mm 0.00 in0.0 mm 0.51 in13.0 mm
11:09 AM 49.5°F9.7°C 48.6°F9.2°C 97% 4.0 mph N6.4 kmh N 8.0 mph12.9 kmh 29.79 in1008.8 mb 0.03 in0.8 mm 0.00 in0.0 mm 0.51 in13.0 mm
11:12 AM 49.5°F9.7°C 48.6°F9.2°C 97% 4.0 mph N6.4 kmh N 8.0 mph12.9 kmh 29.79 in1008.8 mb 0.02 in0.5 mm 0.00 in0.0 mm 0.51 in13.0 mm
11:15 AM 49.5°F9.7°C 48.7°F9.3°C 97% 4.0 mph N6.4 kmh N 8.0 mph12.9 kmh 29.79 in1008.8 mb 0.02 in0.5 mm 0.00 in0.0 mm 0.51 in13.0 mm
11:18 AM 49.6°F9.8°C 48.7°F9.3°C 97% 4.0 mph N6.4 kmh N 8.0 mph12.9 kmh 29.79 in1008.8 mb 0.02 in0.5 mm 0.00 in0.0 mm 0.51 in13.0 mm
11:21 AM 49.6°F9.8°C 48.7°F9.3°C 97% 4.0 mph N6.4 kmh N 8.0 mph12.9 kmh 29.78 in1008.5 mb 0.02 in0.5 mm 0.00 in0.0 mm 0.51 in13.0 mm
11:24 AM 49.6°F9.8°C 48.7°F9.3°C 97% 4.0 mph N6.4 kmh N 8.0 mph12.9 kmh 29.77 in1008.1 mb 0.02 in0.5 mm 0.00 in0.0 mm 0.51 in13.0 mm
11:27 AM 49.8°F9.9°C 48.9°F9.4°C 97% 3.0 mph N4.8 kmh N 6.0 mph9.7 kmh 29.77 in1008.1 mb 0.01 in0.3 mm 0.00 in0.0 mm 0.51 in13.0 mm
11:30 AM 49.8°F9.9°C 49.1°F9.5°C 97% 2.0 mph N3.2 kmh N 6.0 mph9.7 kmh 29.78 in1008.5 mb 0.01 in0.3 mm 0.00 in0.0 mm 0.51 in13.0 mm
11:33 AM 49.8°F9.9°C 49.1°F9.5°C 97% 3.0 mph NNW4.8 kmh NNW 6.0 mph9.7 kmh 29.78 in1008.5 mb 0.00 in0.0 mm 0.00 in0.0 mm 0.51 in13.0 mm
11:36 AM 50.0°F10.0°C 49.1°F9.5°C 97% 3.0 mph NNW4.8 kmh NNW 8.0 mph12.9 kmh 29.77 in1008.1 mb 0.00 in0.0 mm 0.00 in0.0 mm 0.51 in13.0 mm
11:39 AM 50.0°F10.0°C 49.1°F9.5°C 97% 3.0 mph NNW4.8 kmh NNW 8.0 mph12.9 kmh 29.78 in1008.5 mb 0.00 in0.0 mm 0.00 in0.0 mm 0.51 in13.0 mm
11:42 AM 50.2°F10.1°C 49.3°F9.6°C 97% 4.0 mph NNW6.4 kmh NNW 8.0 mph12.9 kmh 29.78 in1008.5 mb 0.00 in0.0 mm 0.00 in0.0 mm 0.51 in13.0 mm
11:45 AM 50.2°F10.1°C 49.5°F9.7°C 97% 3.0 mph NNW4.8 kmh NNW 8.0 mph12.9 kmh 29.78 in1008.5 mb 0.00 in0.0 mm 0.00 in0.0 mm 0.51 in13.0 mm
11:48 AM 50.2°F10.1°C 48.9°F9.4°C 96% 3.0 mph NNW4.8 kmh NNW 8.0 mph12.9 kmh 29.78 in1008.5 mb 0.00 in0.0 mm 0.00 in0.0 mm 0.51 in13.0 mm
11:51 AM 50.0°F10.0°C 48.9°F9.4°C 96% 2.0 mph NNW3.2 kmh NNW 8.0 mph12.9 kmh 29.77 in1008.1 mb 0.00 in0.0 mm 0.00 in0.0 mm 0.51 in13.0 mm
11:54 AM 50.0°F10.0°C 48.9°F9.4°C 96% 2.0 mph N3.2 kmh N 5.0 mph8.0 kmh 29.77 in1008.1 mb 0.00 in0.0 mm 0.00 in0.0 mm 0.51 in13.0 mm
11:57 AM 49.8°F9.9°C 48.7°F9.3°C 96% 2.0 mph N3.2 kmh N 5.0 mph8.0 kmh 29.78 in1008.5 mb 0.00 in0.0 mm 0.00 in0.0 mm 0.51 in13.0 mm
12:00 PM 49.8°F9.9°C 49.1°F9.5°C 97% 3.0 mph N4.8 kmh N 5.0 mph8.0 kmh 29.78 in1008.5 mb 0.00 in0.0 mm 0.00 in0.0 mm 0.51 in13.0 mm
12:03 PM 50.0°F10.0°C 49.1°F9.5°C 97% 3.0 mph NNW4.8 kmh NNW 5.0 mph8.0 kmh 29.78 in1008.5 mb 0.00 in0.0 mm 0.00 in0.0 mm 0.51 in13.0 mm
12:06 PM 50.2°F10.1°C 49.3°F9.6°C 97% 3.0 mph NNW4.8 kmh NNW 11.0 mph17.7 kmh 29.78 in1008.5 mb 0.00 in0.0 mm 0.00 in0.0 mm 0.51 in13.0 mm
12:09 PM 50.0°F10.0°C 48.9°F9.4°C 96% 4.0 mph NNW6.4 kmh NNW 12.0 mph19.3 kmh 29.78 in1008.5 mb 0.00 in0.0 mm 0.00 in0.0 mm 0.51 in13.0 mm
12:12 PM 49.8°F9.9°C 48.7°F9.3°C 96% 6.0 mph NNW9.7 kmh NNW 12.0 mph19.3 kmh 29.77 in1008.1 mb 0.00 in0.0 mm 0.00 in0.0 mm 0.51 in13.0 mm
12:15 PM 49.6°F9.8°C 48.6°F9.2°C 96% 7.0 mph N11.3 kmh N 12.0 mph19.3 kmh 29.77 in1008.1 mb 0.00 in0.0 mm 0.00 in0.0 mm 0.51 in13.0 mm
12:18 PM 49.6°F9.8°C 48.6°F9.2°C 96% 7.0 mph N11.3 kmh N 12.0 mph19.3 kmh 29.77 in1008.1 mb 0.00 in0.0 mm 0.00 in0.0 mm 0.51 in13.0 mm
12:21 PM 49.8°F9.9°C 48.7°F9.3°C 96% 6.0 mph N9.7 kmh N 11.0 mph17.7 kmh 29.77 in1008.1 mb 0.00 in0.0 mm 0.00 in0.0 mm 0.51 in13.0 mm
12:24 PM 50.0°F10.0°C 48.9°F9.4°C 96% 6.0 mph N9.7 kmh N 10.0 mph16.1 kmh 29.77 in1008.1 mb 0.00 in0.0 mm 0.00 in0.0 mm 0.51 in13.0 mm
12:27 PM 50.2°F10.1°C 48.9°F9.4°C 96% 6.0 mph N9.7 kmh N 10.0 mph16.1 kmh 29.77 in1008.1 mb 0.00 in0.0 mm 0.00 in0.0 mm 0.51 in13.0 mm
12:30 PM 50.0°F10.0°C 48.9°F9.4°C 96% 6.0 mph N9.7 kmh N 10.0 mph16.1 kmh 29.78 in1008.5 mb 0.00 in0.0 mm 0.00 in0.0 mm 0.51 in13.0 mm
12:33 PM 50.2°F10.1°C 48.9°F9.4°C 96% 5.0 mph N8.0 kmh N 10.0 mph16.1 kmh 29.77 in1008.1 mb 0.00 in0.0 mm 0.00 in0.0 mm 0.51 in13.0 mm
12:36 PM 50.4°F10.2°C 49.3°F9.6°C 96% 5.0 mph NNW8.0 kmh NNW 9.0 mph14.5 kmh 29.77 in1008.1 mb 0.00 in0.0 mm 0.00 in0.0 mm 0.51 in13.0 mm
12:39 PM 50.4°F10.2°C 49.3°F9.6°C 96% 5.0 mph N8.0 kmh N 10.0 mph16.1 kmh 29.77 in1008.1 mb 0.00 in0.0 mm 0.00 in0.0 mm 0.51 in13.0 mm
12:42 PM 50.4°F10.2°C 49.3°F9.6°C 96% 6.0 mph N9.7 kmh N 10.0 mph16.1 kmh 29.77 in1008.1 mb 0.00 in0.0 mm 0.00 in0.0 mm 0.51 in13.0 mm
12:45 PM 50.4°F10.2°C 49.3°F9.6°C 96% 6.0 mph N9.7 kmh N 10.0 mph16.1 kmh 29.77 in1008.1 mb 0.00 in0.0 mm 0.00 in0.0 mm 0.51 in13.0 mm
12:48 PM 50.5°F10.3°C 49.5°F9.7°C 96% 4.0 mph NNW6.4 kmh NNW 9.0 mph14.5 kmh 29.77 in1008.1 mb 0.00 in0.0 mm 0.00 in0.0 mm 0.51 in13.0 mm
12:51 PM 51.1°F10.6°C 50.4°F10.2°C 97% 4.0 mph NNW6.4 kmh NNW 9.0 mph14.5 kmh 29.77 in1008.1 mb 0.00 in0.0 mm 0.00 in0.0 mm 0.51 in13.0 mm
12:54 PM 51.4°F10.8°C 50.5°F10.3°C 97% 4.0 mph NNW6.4 kmh NNW 11.0 mph17.7 kmh 29.77 in1008.1 mb 0.00 in0.0 mm 0.00 in0.0 mm 0.51 in13.0 mm
12:57 PM 51.6°F10.9°C 50.5°F10.3°C 96% 5.0 mph NNW8.0 kmh NNW 13.0 mph20.9 kmh 29.78 in1008.5 mb 0.00 in0.0 mm 0.00 in0.0 mm 0.51 in13.0 mm
01:00 PM 51.8°F11.0°C 50.7°F10.4°C 96% 7.0 mph NNW11.3 kmh NNW 14.0 mph22.5 kmh 29.78 in1008.5 mb 0.00 in0.0 mm 0.00 in0.0 mm 0.51 in13.0 mm
01:03 PM 52.2°F11.2°C 51.1°F10.6°C 96% 7.0 mph NNW11.3 kmh NNW 14.0 mph22.5 kmh 29.78 in1008.5 mb 0.00 in0.0 mm 0.00 in0.0 mm 0.51 in13.0 mm
01:06 PM 52.3°F11.3°C 51.3°F10.7°C 96% 6.0 mph NNW9.7 kmh NNW 14.0 mph22.5 kmh 29.78 in1008.5 mb 0.01 in0.3 mm 0.20 in5.1 mm 0.52 in13.2 mm
01:09 PM 52.3°F11.3°C 51.3°F10.7°C 96% 5.0 mph NNW8.0 kmh NNW 13.0 mph20.9 kmh 29.78 in1008.5 mb 0.01 in0.3 mm 0.00 in0.0 mm 0.52 in13.2 mm
01:12 PM 52.5°F11.4°C 51.4°F10.8°C 96% 4.0 mph NNW6.4 kmh NNW 13.0 mph20.9 kmh 29.78 in1008.5 mb 0.01 in0.3 mm 0.00 in0.0 mm 0.52 in13.2 mm
01:15 PM 52.9°F11.6°C 51.8°F11.0°C 96% 5.0 mph NNW8.0 kmh NNW 13.0 mph20.9 kmh 29.78 in1008.5 mb 0.01 in0.3 mm 0.00 in0.0 mm 0.52 in13.2 mm
01:18 PM 53.2°F11.8°C 52.2°F11.2°C 96% 5.0 mph NNW8.0 kmh NNW 13.0 mph20.9 kmh 29.78 in1008.5 mb 0.01 in0.3 mm 0.00 in0.0 mm 0.52 in13.2 mm
01:21 PM 53.4°F11.9°C 52.0°F11.1°C 95% 6.0 mph NNW9.7 kmh NNW 13.0 mph20.9 kmh 29.78 in1008.5 mb 0.01 in0.3 mm 0.00 in0.0 mm 0.52 in13.2 mm
01:24 PM 53.4°F11.9°C 52.0°F11.1°C 95% 6.0 mph NNW9.7 kmh NNW 13.0 mph20.9 kmh 29.78 in1008.5 mb 0.01 in0.3 mm 0.00 in0.0 mm 0.52 in13.2 mm
01:27 PM 53.2°F11.8°C 51.6°F10.9°C 94% 5.0 mph NW8.0 kmh NW 12.0 mph19.3 kmh 29.78 in1008.5 mb 0.01 in0.3 mm 0.00 in0.0 mm 0.52 in13.2 mm
01:30 PM 53.2°F11.8°C 51.6°F10.9°C 94% 5.0 mph NW8.0 kmh NW 11.0 mph17.7 kmh 29.78 in1008.5 mb 0.01 in0.3 mm 0.00 in0.0 mm 0.52 in13.2 mm
01:33 PM 53.2°F11.8°C 51.4°F10.8°C 94% 5.0 mph NW8.0 kmh NW 11.0 mph17.7 kmh 29.78 in1008.5 mb 0.01 in0.3 mm 0.00 in0.0 mm 0.52 in13.2 mm
01:36 PM 53.4°F11.9°C 51.8°F11.0°C 94% 5.0 mph NW8.0 kmh NW 11.0 mph17.7 kmh 29.78 in1008.5 mb 0.01 in0.3 mm 0.00 in0.0 mm 0.52 in13.2 mm
01:39 PM 53.4°F11.9°C 51.4°F10.8°C 93% 5.0 mph NW8.0 kmh NW 13.0 mph20.9 kmh 29.78 in1008.5 mb 0.01 in0.3 mm 0.00 in0.0 mm 0.52 in13.2 mm
01:42 PM 53.4°F11.9°C 51.1°F10.6°C 92% 6.0 mph NW9.7 kmh NW 13.0 mph20.9 kmh 29.78 in1008.5 mb 0.01 in0.3 mm 0.00 in0.0 mm 0.52 in13.2 mm
01:45 PM 53.2°F11.8°C 51.1°F10.6°C 92% 6.0 mph NW9.7 kmh NW 13.0 mph20.9 kmh 29.78 in1008.5 mb 0.01 in0.3 mm 0.00 in0.0 mm 0.52 in13.2 mm
01:48 PM 53.4°F11.9°C 51.3°F10.7°C 92% 6.0 mph NW9.7 kmh NW 12.0 mph19.3 kmh 29.78 in1008.5 mb 0.01 in0.3 mm 0.00 in0.0 mm 0.52 in13.2 mm
01:51 PM 53.8°F12.1°C 51.1°F10.6°C 91% 5.0 mph NW8.0 kmh NW 11.0 mph17.7 kmh 29.78 in1008.5 mb 0.01 in0.3 mm 0.00 in0.0 mm 0.52 in13.2 mm
01:54 PM 53.6°F12.0°C 50.7°F10.4°C 90% 5.0 mph NW8.0 kmh NW 11.0 mph17.7 kmh 29.78 in1008.5 mb 0.01 in0.3 mm 0.00 in0.0 mm 0.52 in13.2 mm
01:57 PM 53.6°F12.0°C 50.4°F10.2°C 89% 4.0 mph NW6.4 kmh NW 11.0 mph17.7 kmh 29.78 in1008.5 mb 0.01 in0.3 mm 0.00 in0.0 mm 0.52 in13.2 mm
02:00 PM 53.4°F11.9°C 50.0°F10.0°C 88% 4.0 mph NW6.4 kmh NW 12.0 mph19.3 kmh 29.78 in1008.5 mb 0.01 in0.3 mm 0.00 in0.0 mm 0.52 in13.2 mm
02:03 PM 53.2°F11.8°C 49.8°F9.9°C 88% 6.0 mph NW9.7 kmh NW 16.0 mph25.7 kmh 29.79 in1008.8 mb 0.01 in0.3 mm 0.00 in0.0 mm 0.52 in13.2 mm
02:06 PM 52.9°F11.6°C 49.5°F9.7°C 88% 6.0 mph NW9.7 kmh NW 16.0 mph25.7 kmh 29.79 in1008.8 mb 0.00 in0.0 mm 0.00 in0.0 mm 0.52 in13.2 mm
02:09 PM 52.5°F11.4°C 49.3°F9.6°C 89% 6.0 mph NW9.7 kmh NW 16.0 mph25.7 kmh 29.79 in1008.8 mb 0.00 in0.0 mm 0.00 in0.0 mm 0.52 in13.2 mm
02:12 PM 52.2°F11.2°C 49.1°F9.5°C 89% 6.0 mph NW9.7 kmh NW 16.0 mph25.7 kmh 29.79 in1008.8 mb 0.00 in0.0 mm 0.00 in0.0 mm 0.52 in13.2 mm
02:15 PM 52.0°F11.1°C 49.1°F9.5°C 90% 5.0 mph NW8.0 kmh NW 14.0 mph22.5 kmh 29.79 in1008.8 mb 0.00 in0.0 mm 0.00 in0.0 mm 0.52 in13.2 mm
02:18 PM 52.0°F11.1°C 49.1°F9.5°C 90% 5.0 mph NW8.0 kmh NW 13.0 mph20.9 kmh 29.79 in1008.8 mb 0.00 in0.0 mm 0.00 in0.0 mm 0.52 in13.2 mm
02:21 PM 52.0°F11.1°C 49.1°F9.5°C 90% 5.0 mph NW8.0 kmh NW 13.0 mph20.9 kmh 29.79 in1008.8 mb 0.00 in0.0 mm 0.00 in0.0 mm 0.52 in13.2 mm
02:24 PM 52.0°F11.1°C 49.5°F9.7°C 91% 5.0 mph NW8.0 kmh NW 13.0 mph20.9 kmh 29.79 in1008.8 mb 0.00 in0.0 mm 0.00 in0.0 mm 0.52 in13.2 mm
02:27 PM 52.2°F11.2°C 49.6°F9.8°C 91% 4.0 mph NW6.4 kmh NW 10.0 mph16.1 kmh 29.79 in1008.8 mb 0.00 in0.0 mm 0.00 in0.0 mm 0.52 in13.2 mm
02:30 PM 52.3°F11.3°C 49.8°F9.9°C 91% 4.0 mph NW6.4 kmh NW 11.0 mph17.7 kmh 29.79 in1008.8 mb 0.00 in0.0 mm 0.00 in0.0 mm 0.52 in13.2 mm
02:33 PM 52.5°F11.4°C 50.0°F10.0°C 91% 4.0 mph NW6.4 kmh NW 11.0 mph17.7 kmh 29.79 in1008.8 mb 0.00 in0.0 mm 0.00 in0.0 mm 0.52 in13.2 mm
02:36 PM 52.7°F11.5°C 49.8°F9.9°C 90% 5.0 mph NW8.0 kmh NW 17.0 mph27.4 kmh 29.78 in1008.5 mb 0.00 in0.0 mm 0.00 in0.0 mm 0.52 in13.2 mm
02:39 PM 52.9°F11.6°C 50.0°F10.0°C 90% 6.0 mph NW9.7 kmh NW 17.0 mph27.4 kmh 29.78 in1008.5 mb 0.00 in0.0 mm 0.00 in0.0 mm 0.52 in13.2 mm
02:42 PM 53.1°F11.7°C 50.0°F10.0°C 89% 7.0 mph NNW11.3 kmh NNW 17.0 mph27.4 kmh 29.78 in1008.5 mb 0.00 in0.0 mm 0.00 in0.0 mm 0.52 in13.2 mm
02:45 PM 53.4°F11.9°C 50.4°F10.2°C 89% 8.0 mph NNW12.9 kmh NNW 17.0 mph27.4 kmh 29.78 in1008.5 mb 0.00 in0.0 mm 0.00 in0.0 mm 0.52 in13.2 mm
02:48 PM 53.8°F12.1°C 50.2°F10.1°C 88% 9.0 mph NNW14.5 kmh NNW 16.0 mph25.7 kmh 29.78 in1008.5 mb 0.00 in0.0 mm 0.00 in0.0 mm 0.52 in13.2 mm
02:51 PM 53.8°F12.1°C 49.6°F9.8°C 86% 8.0 mph NNW12.9 kmh NNW 16.0 mph25.7 kmh 29.78 in1008.5 mb 0.00 in0.0 mm 0.00 in0.0 mm 0.52 in13.2 mm
02:54 PM 53.8°F12.1°C 49.6°F9.8°C 86% 6.0 mph NW9.7 kmh NW 15.0 mph24.1 kmh 29.78 in1008.5 mb 0.00 in0.0 mm 0.00 in0.0 mm 0.52 in13.2 mm
02:57 PM 53.6°F12.0°C 49.3°F9.6°C 85% 5.0 mph NW8.0 kmh NW 13.0 mph20.9 kmh 29.79 in1008.8 mb 0.00 in0.0 mm 0.00 in0.0 mm 0.52 in13.2 mm
03:00 PM 53.8°F12.1°C 49.5°F9.7°C 85% 5.0 mph NW8.0 kmh NW 13.0 mph20.9 kmh 29.78 in1008.5 mb 0.00 in0.0 mm 0.00 in0.0 mm 0.52 in13.2 mm
03:03 PM 54.0°F12.2°C 49.6°F9.8°C 85% 5.0 mph NW8.0 kmh NW 11.0 mph17.7 kmh 29.79 in1008.8 mb 0.00 in0.0 mm 0.00 in0.0 mm 0.52 in13.2 mm
03:06 PM 54.3°F12.4°C 50.0°F10.0°C 85% 6.0 mph NW9.7 kmh NW 11.0 mph17.7 kmh 29.78 in1008.5 mb 0.00 in0.0 mm 0.00 in0.0 mm 0.52 in13.2 mm
03:09 PM 54.9°F12.7°C 50.2°F10.1°C 84% 6.0 mph NW9.7 kmh NW 14.0 mph22.5 kmh 29.78 in1008.5 mb 0.00 in0.0 mm 0.00 in0.0 mm 0.52 in13.2 mm
03:12 PM 55.0°F12.8°C 49.6°F9.8°C 82% 7.0 mph NW11.3 kmh NW 14.0 mph22.5 kmh 29.78 in1008.5 mb 0.00 in0.0 mm 0.00 in0.0 mm 0.52 in13.2 mm
03:15 PM 55.2°F12.9°C 49.1°F9.5°C 80% 6.0 mph NW9.7 kmh NW 14.0 mph22.5 kmh 29.78 in1008.5 mb 0.00 in0.0 mm 0.00 in0.0 mm 0.52 in13.2 mm
03:18 PM 55.4°F13.0°C 49.6°F9.8°C 81% 6.0 mph NW9.7 kmh NW 13.0 mph20.9 kmh 29.78 in1008.5 mb 0.00 in0.0 mm 0.00 in0.0 mm 0.52 in13.2 mm
03:21 PM 55.8°F13.2°C 50.0°F10.0°C 81% 5.0 mph NW8.0 kmh NW 13.0 mph20.9 kmh 29.78 in1008.5 mb 0.00 in0.0 mm 0.00 in0.0 mm 0.52 in13.2 mm
03:24 PM 56.1°F13.4°C 50.0°F10.0°C 80% 5.0 mph NW8.0 kmh NW 13.0 mph20.9 kmh 29.78 in1008.5 mb 0.00 in0.0 mm 0.00 in0.0 mm 0.52 in13.2 mm
03:27 PM 56.1°F13.4°C 49.1°F9.5°C 77% 5.0 mph NW8.0 kmh NW 13.0 mph20.9 kmh 29.78 in1008.5 mb 0.00 in0.0 mm 0.00 in0.0 mm 0.52 in13.2 mm
03:30 PM 56.1°F13.4°C 49.3°F9.6°C 78% 5.0 mph NW8.0 kmh NW 13.0 mph20.9 kmh 29.78 in1008.5 mb 0.00 in0.0 mm 0.00 in0.0 mm 0.52 in13.2 mm
03:33 PM 55.9°F13.3°C 49.3°F9.6°C 78% 4.0 mph NW6.4 kmh NW 10.0 mph16.1 kmh 29.78 in1008.5 mb 0.00 in0.0 mm 0.00 in0.0 mm 0.52 in13.2 mm
03:36 PM 56.1°F13.4°C 48.9°F9.4°C 77% 4.0 mph NW6.4 kmh NW 10.0 mph16.1 kmh 29.79 in1008.8 mb 0.00 in0.0 mm 0.00 in0.0 mm 0.52 in13.2 mm
03:39 PM 55.9°F13.3°C 48.9°F9.4°C 77% 4.0 mph NW6.4 kmh NW 10.0 mph16.1 kmh 29.78 in1008.5 mb 0.00 in0.0 mm 0.00 in0.0 mm 0.52 in13.2 mm
03:42 PM 55.9°F13.3°C 48.7°F9.3°C 77% 4.0 mph NW6.4 kmh NW 9.0 mph14.5 kmh 29.78 in1008.5 mb 0.00 in0.0 mm 0.00 in0.0 mm 0.52 in13.2 mm
03:45 PM 55.9°F13.3°C 48.7°F9.3°C 77% 3.0 mph NW4.8 kmh NW 8.0 mph12.9 kmh 29.79 in1008.8 mb 0.00 in0.0 mm 0.00 in0.0 mm 0.52 in13.2 mm
03:48 PM 55.8°F13.2°C 49.1°F9.5°C 78% 3.0 mph NW4.8 kmh NW 9.0 mph14.5 kmh 29.79 in1008.8 mb 0.00 in0.0 mm 0.00 in0.0 mm 0.52 in13.2 mm
03:51 PM 55.8°F13.2°C 48.9°F9.4°C 78% 4.0 mph WNW6.4 kmh WNW 12.0 mph19.3 kmh 29.78 in1008.5 mb 0.00 in0.0 mm 0.00 in0.0 mm 0.52 in13.2 mm
03:54 PM 55.6°F13.1°C 48.2°F9.0°C 76% 6.0 mph W9.7 kmh W 12.0 mph19.3 kmh 29.78 in1008.5 mb 0.00 in0.0 mm 0.00 in0.0 mm 0.52 in13.2 mm
03:57 PM 55.2°F12.9°C 47.8°F8.8°C 76% 7.0 mph W11.3 kmh W 12.0 mph19.3 kmh 29.78 in1008.5 mb 0.00 in0.0 mm 0.00 in0.0 mm 0.52 in13.2 mm
04:00 PM 54.9°F12.7°C 47.5°F8.6°C 76% 6.0 mph W9.7 kmh W 12.0 mph19.3 kmh 29.78 in1008.5 mb 0.00 in0.0 mm 0.00 in0.0 mm 0.52 in13.2 mm
04:03 PM 54.7°F12.6°C 47.5°F8.6°C 77% 5.0 mph W8.0 kmh W 12.0 mph19.3 kmh 29.79 in1008.8 mb 0.00 in0.0 mm 0.00 in0.0 mm 0.52 in13.2 mm
04:06 PM 54.3°F12.4°C 47.7°F8.7°C 78% 5.0 mph WNW8.0 kmh WNW 13.0 mph20.9 kmh 29.79 in1008.8 mb 0.00 in0.0 mm 0.00 in0.0 mm 0.52 in13.2 mm
04:09 PM 53.8°F12.1°C 47.3°F8.5°C 79% 6.0 mph WNW9.7 kmh WNW 13.0 mph20.9 kmh 29.79 in1008.8 mb 0.00 in0.0 mm 0.00 in0.0 mm 0.52 in13.2 mm
04:12 PM 53.4°F11.9°C 48.4°F9.1°C 83% 6.0 mph WNW9.7 kmh WNW 13.0 mph20.9 kmh 29.79 in1008.8 mb 0.00 in0.0 mm 0.00 in0.0 mm 0.52 in13.2 mm
04:15 PM 53.4°F11.9°C 48.9°F9.4°C 85% 6.0 mph WNW9.7 kmh WNW 13.0 mph20.9 kmh 29.79 in1008.8 mb 0.00 in0.0 mm 0.00 in0.0 mm 0.52 in13.2 mm
04:18 PM 53.4°F11.9°C 49.5°F9.7°C 86% 5.0 mph WNW8.0 kmh WNW 11.0 mph17.7 kmh 29.79 in1008.8 mb 0.00 in0.0 mm 0.00 in0.0 mm 0.52 in13.2 mm
04:21 PM 53.8°F12.1°C 49.6°F9.8°C 86% 5.0 mph W8.0 kmh W 11.0 mph17.7 kmh 29.79 in1008.8 mb 0.00 in0.0 mm 0.00 in0.0 mm 0.52 in13.2 mm
04:24 PM 54.1°F12.3°C 50.4°F10.2°C 87% 6.0 mph W9.7 kmh W 11.0 mph17.7 kmh 29.79 in1008.8 mb 0.00 in0.0 mm 0.00 in0.0 mm 0.52 in13.2 mm
04:27 PM 54.7°F12.6°C 50.7°F10.4°C 87% 6.0 mph W9.7 kmh W 11.0 mph17.7 kmh 29.79 in1008.8 mb 0.00 in0.0 mm 0.00 in0.0 mm 0.52 in13.2 mm
04:30 PM 55.0°F12.8°C 50.9°F10.5°C 86% 6.0 mph W9.7 kmh W 11.0 mph17.7 kmh 29.79 in1008.8 mb 0.00 in0.0 mm 0.00 in0.0 mm 0.52 in13.2 mm
04:33 PM 55.2°F12.9°C 50.5°F10.3°C 84% 5.0 mph W8.0 kmh W 11.0 mph17.7 kmh 29.79 in1008.8 mb 0.00 in0.0 mm 0.00 in0.0 mm 0.52 in13.2 mm
04:36 PM 55.2°F12.9°C 49.8°F9.9°C 82% 4.0 mph W6.4 kmh W 11.0 mph17.7 kmh 29.79 in1008.8 mb 0.00 in0.0 mm 0.00 in0.0 mm 0.52 in13.2 mm
04:39 PM 55.0°F12.8°C 49.5°F9.7°C 81% 4.0 mph W6.4 kmh W 10.0 mph16.1 kmh 29.79 in1008.8 mb 0.00 in0.0 mm 0.00 in0.0 mm 0.52 in13.2 mm
04:42 PM 55.0°F12.8°C 49.3°F9.6°C 81% 4.0 mph W6.4 kmh W 12.0 mph19.3 kmh 29.79 in1008.8 mb 0.00 in0.0 mm 0.00 in0.0 mm 0.52 in13.2 mm
04:45 PM 55.0°F12.8°C 49.3°F9.6°C 81% 4.0 mph W6.4 kmh W 12.0 mph19.3 kmh 29.79 in1008.8 mb 0.00 in0.0 mm 0.00 in0.0 mm 0.52 in13.2 mm
04:48 PM 54.7°F12.6°C 48.4°F9.1°C 79% 5.0 mph W8.0 kmh W 15.0 mph24.1 kmh 29.79 in1008.8 mb 0.00 in0.0 mm 0.00 in0.0 mm 0.52 in13.2 mm
04:51 PM 54.3°F12.4°C 47.7°F8.7°C 78% 6.0 mph W9.7 kmh W 15.0 mph24.1 kmh 29.79 in1008.8 mb 0.00 in0.0 mm 0.00 in0.0 mm 0.52 in13.2 mm
04:54 PM 54.1°F12.3°C 47.7°F8.7°C 79% 7.0 mph W11.3 kmh W 15.0 mph24.1 kmh 29.79 in1008.8 mb 0.00 in0.0 mm 0.00 in0.0 mm 0.52 in13.2 mm
04:57 PM 54.1°F12.3°C 48.6°F9.2°C 81% 7.0 mph W11.3 kmh W 15.0 mph24.1 kmh 29.79 in1008.8 mb 0.00 in0.0 mm 0.00 in0.0 mm 0.52 in13.2 mm
05:00 PM 54.7°F12.6°C 48.9°F9.4°C 81% 7.0 mph W11.3 kmh W 15.0 mph24.1 kmh 29.79 in1008.8 mb 0.00 in0.0 mm 0.00 in0.0 mm 0.52 in13.2 mm
05:03 PM 55.2°F12.9°C 49.5°F9.7°C 81% 6.0 mph W9.7 kmh W 15.0 mph24.1 kmh 29.80 in1009.1 mb 0.00 in0.0 mm 0.00 in0.0 mm 0.52 in13.2 mm
05:06 PM 55.6°F13.1°C 49.5°F9.7°C 80% 6.0 mph W9.7 kmh W 15.0 mph24.1 kmh 29.80 in1009.1 mb 0.00 in0.0 mm 0.00 in0.0 mm 0.52 in13.2 mm
05:09 PM 55.8°F13.2°C 48.9°F9.4°C 78% 7.0 mph W11.3 kmh W 16.0 mph25.7 kmh 29.79 in1008.8 mb 0.00 in0.0 mm 0.00 in0.0 mm 0.52 in13.2 mm
05:12 PM 55.8°F13.2°C 48.6°F9.2°C 77% 8.0 mph W12.9 kmh W 17.0 mph27.4 kmh 29.79 in1008.8 mb 0.00 in0.0 mm 0.00 in0.0 mm 0.52 in13.2 mm
05:15 PM 55.8°F13.2°C 48.2°F9.0°C 76% 8.0 mph W12.9 kmh W 17.0 mph27.4 kmh 29.79 in1008.8 mb 0.00 in0.0 mm 0.00 in0.0 mm 0.52 in13.2 mm
05:18 PM 55.6°F13.1°C 47.7°F8.7°C 75% 7.0 mph WNW11.3 kmh WNW 17.0 mph27.4 kmh 29.79 in1008.8 mb 0.00 in0.0 mm 0.00 in0.0 mm 0.52 in13.2 mm
05:21 PM 55.2°F12.9°C 47.5°F8.6°C 75% 6.0 mph WNW9.7 kmh WNW 17.0 mph27.4 kmh 29.79 in1008.8 mb 0.00 in0.0 mm 0.00 in0.0 mm 0.52 in13.2 mm
05:24 PM 55.6°F13.1°C 48.0°F8.9°C 76% 6.0 mph WNW9.7 kmh WNW 16.0 mph25.7 kmh 29.80 in1009.1 mb 0.00 in0.0 mm 0.00 in0.0 mm 0.52 in13.2 mm
05:27 PM 55.8°F13.2°C 48.4°F9.1°C 76% 7.0 mph W11.3 kmh W 16.0 mph25.7 kmh 29.79 in1008.8 mb 0.00 in0.0 mm 0.00 in0.0 mm 0.52 in13.2 mm
05:30 PM 55.9°F13.3°C 47.8°F8.8°C 74% 6.0 mph W9.7 kmh W 16.0 mph25.7 kmh 29.79 in1008.8 mb 0.00 in0.0 mm 0.00 in0.0 mm 0.52 in13.2 mm
05:33 PM 55.8°F13.2°C 47.3°F8.5°C 73% 7.0 mph W11.3 kmh W 16.0 mph25.7 kmh 29.79 in1008.8 mb 0.00 in0.0 mm 0.00 in0.0 mm 0.52 in13.2 mm
05:36 PM 55.2°F12.9°C 47.1°F8.4°C 74% 5.0 mph W8.0 kmh W 14.0 mph22.5 kmh 29.80 in1009.1 mb 0.00 in0.0 mm 0.00 in0.0 mm 0.52 in13.2 mm
05:39 PM 55.0°F12.8°C 47.3°F8.5°C 75% 5.0 mph W8.0 kmh W 14.0 mph22.5 kmh 29.79 in1008.8 mb 0.00 in0.0 mm 0.00 in0.0 mm 0.52 in13.2 mm
05:42 PM 55.0°F12.8°C 47.3°F8.5°C 75% 5.0 mph W8.0 kmh W 12.0 mph19.3 kmh 29.79 in1008.8 mb 0.00 in0.0 mm 0.00 in0.0 mm 0.52 in13.2 mm
05:45 PM 55.4°F13.0°C 48.0°F8.9°C 76% 5.0 mph W8.0 kmh W 12.0 mph19.3 kmh 29.79 in1008.8 mb 0.00 in0.0 mm 0.00 in0.0 mm 0.52 in13.2 mm
05:48 PM 55.8°F13.2°C 48.0°F8.9°C 75% 6.0 mph W9.7 kmh W 12.0 mph19.3 kmh 29.79 in1008.8 mb 0.00 in0.0 mm 0.00 in0.0 mm 0.52 in13.2 mm
05:51 PM 55.9°F13.3°C 47.3°F8.5°C 73% 6.0 mph W9.7 kmh W 15.0 mph24.1 kmh 29.79 in1008.8 mb 0.00 in0.0 mm 0.00 in0.0 mm 0.52 in13.2 mm
05:54 PM 55.8°F13.2°C 47.3°F8.5°C 73% 7.0 mph W11.3 kmh W 19.0 mph30.6 kmh 29.79 in1008.8 mb 0.00 in0.0 mm 0.00 in0.0 mm 0.52 in13.2 mm
05:57 PM 55.6°F13.1°C 46.6°F8.1°C 72% 7.0 mph W11.3 kmh W 19.0 mph30.6 kmh 29.80 in1009.1 mb 0.00 in0.0 mm 0.00 in0.0 mm 0.52 in13.2 mm
06:00 PM 55.4°F13.0°C 46.9°F8.3°C 73% 7.0 mph W11.3 kmh W 19.0 mph30.6 kmh 29.80 in1009.1 mb 0.00 in0.0 mm 0.00 in0.0 mm 0.52 in13.2 mm
06:03 PM 55.2°F12.9°C 46.8°F8.2°C 73% 7.0 mph W11.3 kmh W 19.0 mph30.6 kmh 29.79 in1008.8 mb 0.00 in0.0 mm 0.00 in0.0 mm 0.52 in13.2 mm
06:06 PM 55.2°F12.9°C 46.8°F8.2°C 73% 7.0 mph W11.3 kmh W 17.0 mph27.4 kmh 29.79 in1008.8 mb 0.00 in0.0 mm 0.00 in0.0 mm 0.52 in13.2 mm
06:09 PM 55.0°F12.8°C 46.6°F8.1°C 73% 8.0 mph W12.9 kmh W 17.0 mph27.4 kmh 29.80 in1009.1 mb 0.00 in0.0 mm 0.00 in0.0 mm 0.52 in13.2 mm
06:12 PM 54.7°F12.6°C 46.2°F7.9°C 73% 8.0 mph W12.9 kmh W 17.0 mph27.4 kmh 29.80 in1009.1 mb 0.00 in0.0 mm 0.00 in0.0 mm 0.52 in13.2 mm
06:15 PM 54.7°F12.6°C 46.4°F8.0°C 74% 8.0 mph W12.9 kmh W 17.0 mph27.4 kmh 29.80 in1009.1 mb 0.00 in0.0 mm 0.00 in0.0 mm 0.52 in13.2 mm
06:18 PM 54.5°F12.5°C 46.8°F8.2°C 75% 8.0 mph W12.9 kmh W 17.0 mph27.4 kmh 29.80 in1009.1 mb 0.00 in0.0 mm 0.00 in0.0 mm 0.52 in13.2 mm
06:21 PM 54.1°F12.3°C 46.4°F8.0°C 75% 8.0 mph W12.9 kmh W 17.0 mph27.4 kmh 29.80 in1009.1 mb 0.00 in0.0 mm 0.00 in0.0 mm 0.52 in13.2 mm
06:24 PM 54.0°F12.2°C 46.2°F7.9°C 75% 7.0 mph W11.3 kmh W 16.0 mph25.7 kmh 29.80 in1009.1 mb 0.00 in0.0 mm 0.00 in0.0 mm 0.52 in13.2 mm
06:27 PM 53.8°F12.1°C 46.4°F8.0°C 76% 6.0 mph W9.7 kmh W 16.0 mph25.7 kmh 29.80 in1009.1 mb 0.00 in0.0 mm 0.00 in0.0 mm 0.52 in13.2 mm
06:30 PM 53.6°F12.0°C 46.6°F8.1°C 77% 5.0 mph W8.0 kmh W 13.0 mph20.9 kmh 29.80 in1009.1 mb 0.00 in0.0 mm 0.00 in0.0 mm 0.52 in13.2 mm
06:33 PM 53.6°F12.0°C 46.6°F8.1°C 77% 4.0 mph W6.4 kmh W 14.0 mph22.5 kmh 29.80 in1009.1 mb 0.00 in0.0 mm 0.00 in0.0 mm 0.52 in13.2 mm
06:36 PM 53.4°F11.9°C 46.0°F7.8°C 76% 5.0 mph W8.0 kmh W 14.0 mph22.5 kmh 29.80 in1009.1 mb 0.00 in0.0 mm 0.00 in0.0 mm 0.52 in13.2 mm
06:39 PM 53.2°F11.8°C 45.9°F7.7°C 76% 7.0 mph WNW11.3 kmh WNW 15.0 mph24.1 kmh 29.80 in1009.1 mb 0.00 in0.0 mm 0.00 in0.0 mm 0.52 in13.2 mm
06:42 PM 53.1°F11.7°C 46.0°F7.8°C 77% 7.0 mph W11.3 kmh W 15.0 mph24.1 kmh 29.80 in1009.1 mb 0.00 in0.0 mm 0.00 in0.0 mm 0.52 in13.2 mm
06:45 PM 52.9°F11.6°C 45.9°F7.7°C 77% 7.0 mph W11.3 kmh W 15.0 mph24.1 kmh 29.80 in1009.1 mb 0.00 in0.0 mm 0.00 in0.0 mm 0.52 in13.2 mm
06:48 PM 52.9°F11.6°C 45.9°F7.7°C 77% 7.0 mph W11.3 kmh W 15.0 mph24.1 kmh 29.80 in1009.1 mb 0.00 in0.0 mm 0.00 in0.0 mm 0.52 in13.2 mm
06:51 PM 52.7°F11.5°C 45.7°F7.6°C 77% 6.0 mph W9.7 kmh W 16.0 mph25.7 kmh 29.80 in1009.1 mb 0.00 in0.0 mm 0.00 in0.0 mm 0.52 in13.2 mm
06:54 PM 52.5°F11.4°C 45.7°F7.6°C 77% 6.0 mph W9.7 kmh W 16.0 mph25.7 kmh 29.80 in1009.1 mb 0.00 in0.0 mm 0.00 in0.0 mm 0.52 in13.2 mm
06:57 PM 52.5°F11.4°C 45.9°F7.7°C 78% 5.0 mph W8.0 kmh W 16.0 mph25.7 kmh 29.81 in1009.5 mb 0.00 in0.0 mm 0.00 in0.0 mm 0.52 in13.2 mm
07:00 PM 52.3°F11.3°C 45.7°F7.6°C 78% 5.0 mph W8.0 kmh W 15.0 mph24.1 kmh 29.81 in1009.5 mb 0.00 in0.0 mm 0.00 in0.0 mm 0.52 in13.2 mm
07:03 PM 52.2°F11.2°C 45.1°F7.3°C 77% 6.0 mph W9.7 kmh W 16.0 mph25.7 kmh 29.81 in1009.5 mb 0.00 in0.0 mm 0.00 in0.0 mm 0.52 in13.2 mm
07:06 PM 52.0°F11.1°C 44.2°F6.8°C 75% 6.0 mph W9.7 kmh W 16.0 mph25.7 kmh 29.81 in1009.5 mb 0.00 in0.0 mm 0.00 in0.0 mm 0.52 in13.2 mm
07:09 PM 52.0°F11.1°C 44.6°F7.0°C 76% 6.0 mph W9.7 kmh W 16.0 mph25.7 kmh 29.81 in1009.5 mb 0.00 in0.0 mm 0.00 in0.0 mm 0.52 in13.2 mm
07:12 PM 51.6°F10.9°C 44.4°F6.9°C 76% 6.0 mph W9.7 kmh W 12.0 mph19.3 kmh 29.81 in1009.5 mb 0.00 in0.0 mm 0.00 in0.0 mm 0.52 in13.2 mm
07:15 PM 51.6°F10.9°C 44.2°F6.8°C 76% 6.0 mph WNW9.7 kmh WNW 13.0 mph20.9 kmh 29.81 in1009.5 mb 0.00 in0.0 mm 0.00 in0.0 mm 0.52 in13.2 mm
07:18 PM 51.4°F10.8°C 43.9°F6.6°C 75% 6.0 mph WNW9.7 kmh WNW 13.0 mph20.9 kmh 29.81 in1009.5 mb 0.00 in0.0 mm 0.00 in0.0 mm 0.52 in13.2 mm
07:21 PM 51.4°F10.8°C 43.7°F6.5°C 75% 6.0 mph WNW9.7 kmh WNW 13.0 mph20.9 kmh 29.81 in1009.5 mb 0.00 in0.0 mm 0.00 in0.0 mm 0.52 in13.2 mm
07:24 PM 51.3°F10.7°C 43.2°F6.2°C 74% 6.0 mph WNW9.7 kmh WNW 12.0 mph19.3 kmh 29.81 in1009.5 mb 0.00 in0.0 mm 0.00 in0.0 mm 0.52 in13.2 mm
07:27 PM 50.9°F10.5°C 42.3°F5.7°C 72% 6.0 mph WNW9.7 kmh WNW 12.0 mph19.3 kmh 29.82 in1009.8 mb 0.00 in0.0 mm 0.00 in0.0 mm 0.52 in13.2 mm
07:30 PM 50.7°F10.4°C 41.7°F5.4°C 71% 6.0 mph WNW9.7 kmh WNW 12.0 mph19.3 kmh 29.82 in1009.8 mb 0.00 in0.0 mm 0.00 in0.0 mm 0.52 in13.2 mm
07:33 PM 50.5°F10.3°C 41.5°F5.3°C 71% 5.0 mph WNW8.0 kmh WNW 12.0 mph19.3 kmh 29.82 in1009.8 mb 0.00 in0.0 mm 0.00 in0.0 mm 0.52 in13.2 mm
07:36 PM 50.5°F10.3°C 41.7°F5.4°C 72% 5.0 mph WNW8.0 kmh WNW 12.0 mph19.3 kmh 29.82 in1009.8 mb 0.00 in0.0 mm 0.00 in0.0 mm 0.52 in13.2 mm
07:39 PM 50.4°F10.2°C 41.2°F5.1°C 71% 5.0 mph WNW8.0 kmh WNW 13.0 mph20.9 kmh 29.82 in1009.8 mb 0.00 in0.0 mm 0.00 in0.0 mm 0.52 in13.2 mm
07:42 PM 50.2°F10.1°C 41.2°F5.1°C 71% 5.0 mph WNW8.0 kmh WNW 13.0 mph20.9 kmh 29.82 in1009.8 mb 0.00 in0.0 mm 0.00 in0.0 mm 0.52 in13.2 mm
07:45 PM 50.0°F10.0°C 41.0°F5.0°C 71% 5.0 mph WNW8.0 kmh WNW 13.0 mph20.9 kmh 29.83 in1010.2 mb 0.00 in0.0 mm 0.00 in0.0 mm 0.52 in13.2 mm
07:48 PM 49.8°F9.9°C 40.8°F4.9°C 71% 6.0 mph WNW9.7 kmh WNW 14.0 mph22.5 kmh 29.83 in1010.2 mb 0.00 in0.0 mm 0.00 in0.0 mm 0.52 in13.2 mm
07:51 PM 49.8°F9.9°C 41.2°F5.1°C 72% 6.0 mph WNW9.7 kmh WNW 14.0 mph22.5 kmh 29.83 in1010.2 mb 0.00 in0.0 mm 0.00 in0.0 mm 0.52 in13.2 mm
07:54 PM 49.8°F9.9°C 41.2°F5.1°C 72% 6.0 mph WNW9.7 kmh WNW 14.0 mph22.5 kmh 29.83 in1010.2 mb 0.00 in0.0 mm 0.00 in0.0 mm 0.52 in13.2 mm
07:57 PM 49.6°F9.8°C 41.0°F5.0°C 72% 6.0 mph WNW9.7 kmh WNW 12.0 mph19.3 kmh 29.83 in1010.2 mb 0.00 in0.0 mm 0.00 in0.0 mm 0.52 in13.2 mm
08:00 PM 49.5°F9.7°C 40.8°F4.9°C 72% 5.0 mph WNW8.0 kmh WNW 10.0 mph16.1 kmh 29.83 in1010.2 mb 0.00 in0.0 mm 0.00 in0.0 mm 0.52 in13.2 mm
08:03 PM 49.3°F9.6°C 41.0°F5.0°C 73% 4.0 mph WNW6.4 kmh WNW 10.0 mph16.1 kmh 29.83 in1010.2 mb 0.00 in0.0 mm 0.00 in0.0 mm 0.52 in13.2 mm
08:06 PM 49.1°F9.5°C 40.8°F4.9°C 73% 4.0 mph WNW6.4 kmh WNW 10.0 mph16.1 kmh 29.84 in1010.5 mb 0.00 in0.0 mm 0.00 in0.0 mm 0.52 in13.2 mm
08:09 PM 48.9°F9.4°C 40.6°F4.8°C 73% 4.0 mph WNW6.4 kmh WNW 12.0 mph19.3 kmh 29.84 in1010.5 mb 0.00 in0.0 mm 0.00 in0.0 mm 0.52 in13.2 mm
08:12 PM 48.7°F9.3°C 40.8°F4.9°C 74% 4.0 mph WNW6.4 kmh WNW 12.0 mph19.3 kmh 29.84 in1010.5 mb 0.00 in0.0 mm 0.00 in0.0 mm 0.52 in13.2 mm
08:15 PM 48.7°F9.3°C 41.2°F5.1°C 75% 5.0 mph WNW8.0 kmh WNW 12.0 mph19.3 kmh 29.84 in1010.5 mb 0.00 in0.0 mm 0.00 in0.0 mm 0.52 in13.2 mm
08:18 PM 48.6°F9.2°C 41.0°F5.0°C 75% 5.0 mph WNW8.0 kmh WNW 12.0 mph19.3 kmh 29.84 in1010.5 mb 0.00 in0.0 mm 0.00 in0.0 mm 0.52 in13.2 mm
08:21 PM 48.4°F9.1°C 40.8°F4.9°C 75% 5.0 mph WNW8.0 kmh WNW 12.0 mph19.3 kmh 29.84 in1010.5 mb 0.00 in0.0 mm 0.00 in0.0 mm 0.52 in13.2 mm
08:24 PM 48.2°F9.0°C 40.6°F4.8°C 75% 5.0 mph WNW8.0 kmh WNW 12.0 mph19.3 kmh 29.84 in1010.5 mb 0.00 in0.0 mm 0.00 in0.0 mm 0.52 in13.2 mm
08:27 PM 48.0°F8.9°C 40.8°F4.9°C 76% 4.0 mph WNW6.4 kmh WNW 11.0 mph17.7 kmh 29.84 in1010.5 mb 0.00 in0.0 mm 0.00 in0.0 mm 0.52 in13.2 mm
08:30 PM 47.8°F8.8°C 40.6°F4.8°C 76% 4.0 mph WNW6.4 kmh WNW 9.0 mph14.5 kmh 29.84 in1010.5 mb 0.00 in0.0 mm 0.00 in0.0 mm 0.52 in13.2 mm
08:33 PM 47.8°F8.8°C 40.6°F4.8°C 76% 3.0 mph WNW4.8 kmh WNW 9.0 mph14.5 kmh 29.84 in1010.5 mb 0.00 in0.0 mm 0.00 in0.0 mm 0.52 in13.2 mm
08:36 PM 47.5°F8.6°C 40.6°F4.8°C 77% 3.0 mph WNW4.8 kmh WNW 9.0 mph14.5 kmh 29.84 in1010.5 mb 0.00 in0.0 mm 0.00 in0.0 mm 0.52 in13.2 mm
08:39 PM 47.3°F8.5°C 40.5°F4.7°C 77% 2.0 mph WNW3.2 kmh WNW 7.0 mph11.3 kmh 29.84 in1010.5 mb 0.00 in0.0 mm 0.00 in0.0 mm 0.52 in13.2 mm
08:42 PM 47.1°F8.4°C 40.6°F4.8°C 78% 2.0 mph NW3.2 kmh NW 6.0 mph9.7 kmh 29.85 in1010.8 mb 0.00 in0.0 mm 0.00 in0.0 mm 0.52 in13.2 mm
08:45 PM 46.9°F8.3°C 40.5°F4.7°C 78% 2.0 mph NW3.2 kmh NW 4.0 mph6.4 kmh 29.85 in1010.8 mb 0.00 in0.0 mm 0.00 in0.0 mm 0.52 in13.2 mm
08:48 PM 46.9°F8.3°C 40.5°F4.7°C 78% 2.0 mph NNW3.2 kmh NNW 5.0 mph8.0 kmh 29.85 in1010.8 mb 0.00 in0.0 mm 0.00 in0.0 mm 0.52 in13.2 mm
08:51 PM 46.8°F8.2°C 40.6°F4.8°C 79% 3.0 mph NNW4.8 kmh NNW 5.0 mph8.0 kmh 29.85 in1010.8 mb 0.00 in0.0 mm 0.00 in0.0 mm 0.52 in13.2 mm
08:54 PM 46.6°F8.1°C 40.5°F4.7°C 79% 3.0 mph NNW4.8 kmh NNW 5.0 mph8.0 kmh 29.85 in1010.8 mb 0.00 in0.0 mm 0.00 in0.0 mm 0.52 in13.2 mm
08:57 PM 46.2°F7.9°C 40.1°F4.5°C 79% 2.0 mph NNW3.2 kmh NNW 5.0 mph8.0 kmh 29.85 in1010.8 mb 0.00 in0.0 mm 0.00 in0.0 mm 0.52 in13.2 mm
09:00 PM 46.0°F7.8°C 39.9°F4.4°C 79% 1.0 mph NW1.6 kmh NW 4.0 mph6.4 kmh 29.85 in1010.8 mb 0.00 in0.0 mm 0.00 in0.0 mm 0.52 in13.2 mm
09:03 PM 45.7°F7.6°C 39.6°F4.2°C 79% 1.0 mph NW1.6 kmh NW 2.0 mph3.2 kmh 29.85 in1010.8 mb 0.00 in0.0 mm 0.00 in0.0 mm 0.52 in13.2 mm
09:06 PM 45.3°F7.4°C 39.2°F4.0°C 79% 1.0 mph WNW1.6 kmh WNW 2.0 mph3.2 kmh 29.86 in1011.2 mb 0.00 in0.0 mm 0.00 in0.0 mm 0.52 in13.2 mm
09:09 PM 45.1°F7.3°C 39.4°F4.1°C 80% 1.0 mph W1.6 kmh W 2.0 mph3.2 kmh 29.86 in1011.2 mb 0.00 in0.0 mm 0.00 in0.0 mm 0.52 in13.2 mm
09:12 PM 45.0°F7.2°C 39.4°F4.1°C 81% 1.0 mph W1.6 kmh W 2.0 mph3.2 kmh 29.86 in1011.2 mb 0.00 in0.0 mm 0.00 in0.0 mm 0.52 in13.2 mm
09:15 PM 45.0°F7.2°C 40.1°F4.5°C 83% 1.0 mph W1.6 kmh W 2.0 mph3.2 kmh 29.86 in1011.2 mb 0.00 in0.0 mm 0.00 in0.0 mm 0.52 in13.2 mm
09:18 PM 44.8°F7.1°C 39.9°F4.4°C 83% Calm Calm 2.0 mph3.2 kmh 29.86 in1011.2 mb 0.00 in0.0 mm 0.00 in0.0 mm 0.52 in13.2 mm
09:21 PM 45.0°F7.2°C 40.3°F4.6°C 84% 1.0 mph WNW1.6 kmh WNW 3.0 mph4.8 kmh 29.86 in1011.2 mb 0.00 in0.0 mm 0.00 in0.0 mm 0.52 in13.2 mm
09:24 PM 45.0°F7.2°C 40.3°F4.6°C 84% 1.0 mph WNW1.6 kmh WNW 3.0 mph4.8 kmh 29.86 in1011.2 mb 0.00 in0.0 mm 0.00 in0.0 mm 0.52 in13.2 mm
09:27 PM 44.8°F7.1°C 40.6°F4.8°C 85% 1.0 mph WNW1.6 kmh WNW 4.0 mph6.4 kmh 29.86 in1011.2 mb 0.00 in0.0 mm 0.00 in0.0 mm 0.52 in13.2 mm
09:30 PM 44.6°F7.0°C 40.1°F4.5°C 84% 1.0 mph W1.6 kmh W 5.0 mph8.0 kmh 29.86 in1011.2 mb 0.00 in0.0 mm 0.00 in0.0 mm 0.52 in13.2 mm
09:33 PM 44.4°F6.9°C 39.9°F4.4°C 84% 1.0 mph W1.6 kmh W 5.0 mph8.0 kmh 29.86 in1011.2 mb 0.00 in0.0 mm 0.00 in0.0 mm 0.52 in13.2 mm
09:36 PM 44.4°F6.9°C 40.1°F4.5°C 85% 2.0 mph W3.2 kmh W 5.0 mph8.0 kmh 29.86 in1011.2 mb 0.00 in0.0 mm 0.00 in0.0 mm 0.52 in13.2 mm
09:39 PM 44.2°F6.8°C 40.5°F4.7°C 86% 2.0 mph W3.2 kmh W 6.0 mph9.7 kmh 29.86 in1011.2 mb 0.00 in0.0 mm 0.00 in0.0 mm 0.52 in13.2 mm
09:42 PM 44.2°F6.8°C 40.6°F4.8°C 87% 3.0 mph W4.8 kmh W 6.0 mph9.7 kmh 29.86 in1011.2 mb 0.00 in0.0 mm 0.00 in0.0 mm 0.52 in13.2 mm
09:45 PM 44.4°F6.9°C 40.8°F4.9°C 87% 3.0 mph W4.8 kmh W 7.0 mph11.3 kmh 29.86 in1011.2 mb 0.00 in0.0 mm 0.00 in0.0 mm 0.52 in13.2 mm
09:48 PM 44.6°F7.0°C 41.0°F5.0°C 87% 4.0 mph W6.4 kmh W 8.0 mph12.9 kmh 29.86 in1011.2 mb 0.00 in0.0 mm 0.00 in0.0 mm 0.52 in13.2 mm
09:51 PM 44.8°F7.1°C 41.5°F5.3°C 88% 4.0 mph W6.4 kmh W 8.0 mph12.9 kmh 29.86 in1011.2 mb 0.00 in0.0 mm 0.00 in0.0 mm 0.52 in13.2 mm
09:54 PM 45.0°F7.2°C 41.2°F5.1°C 87% 4.0 mph W6.4 kmh W 9.0 mph14.5 kmh 29.86 in1011.2 mb 0.00 in0.0 mm 0.00 in0.0 mm 0.52 in13.2 mm
09:57 PM 45.0°F7.2°C 41.2°F5.1°C 87% 4.0 mph W6.4 kmh W 9.0 mph14.5 kmh 29.86 in1011.2 mb 0.00 in0.0 mm 0.00 in0.0 mm 0.52 in13.2 mm
10:00 PM 45.0°F7.2°C 41.4°F5.2°C 87% 4.0 mph W6.4 kmh W 9.0 mph14.5 kmh 29.86 in1011.2 mb 0.00 in0.0 mm 0.00 in0.0 mm 0.52 in13.2 mm
10:03 PM 45.0°F7.2°C 41.4°F5.2°C 87% 4.0 mph W6.4 kmh W 10.0 mph16.1 kmh 29.86 in1011.2 mb 0.00 in0.0 mm 0.00 in0.0 mm 0.52 in13.2 mm
10:06 PM 45.3°F7.4°C 41.9°F5.5°C 88% 4.0 mph WSW6.4 kmh WSW 11.0 mph17.7 kmh 29.86 in1011.2 mb 0.00 in0.0 mm 0.00 in0.0 mm 0.52 in13.2 mm
10:09 PM 45.5°F7.5°C 42.1°F5.6°C 88% 4.0 mph WSW6.4 kmh WSW 11.0 mph17.7 kmh 29.86 in1011.2 mb 0.00 in0.0 mm 0.00 in0.0 mm 0.52 in13.2 mm
10:12 PM 45.7°F7.6°C 42.3°F5.7°C 88% 4.0 mph WSW6.4 kmh WSW 11.0 mph17.7 kmh 29.86 in1011.2 mb 0.00 in0.0 mm 0.00 in0.0 mm 0.52 in13.2 mm
10:15 PM 45.7°F7.6°C 41.9°F5.5°C 87% 4.0 mph WSW6.4 kmh WSW 8.0 mph12.9 kmh 29.86 in1011.2 mb 0.00 in0.0 mm 0.00 in0.0 mm 0.52 in13.2 mm
10:18 PM 45.5°F7.5°C 41.9°F5.5°C 87% 4.0 mph WSW6.4 kmh WSW 8.0 mph12.9 kmh 29.86 in1011.2 mb 0.00 in0.0 mm 0.00 in0.0 mm 0.52 in13.2 mm
10:21 PM 45.3°F7.4°C 41.7°F5.4°C 87% 3.0 mph WSW4.8 kmh WSW 7.0 mph11.3 kmh 29.86 in1011.2 mb 0.00 in0.0 mm 0.00 in0.0 mm 0.52 in13.2 mm
10:24 PM 45.3°F7.4°C 41.7°F5.4°C 87% 3.0 mph WSW4.8 kmh WSW 7.0 mph11.3 kmh 29.86 in1011.2 mb 0.00 in0.0 mm 0.00 in0.0 mm 0.52 in13.2 mm
10:27 PM 45.1°F7.3°C 41.5°F5.3°C 87% 3.0 mph WSW4.8 kmh WSW 7.0 mph11.3 kmh 29.86 in1011.2 mb 0.00 in0.0 mm 0.00 in0.0 mm 0.52 in13.2 mm
10:30 PM 45.1°F7.3°C 41.5°F5.3°C 87% 3.0 mph WSW4.8 kmh WSW 7.0 mph11.3 kmh 29.86 in1011.2 mb 0.00 in0.0 mm 0.00 in0.0 mm 0.52 in13.2 mm
10:33 PM 45.0°F7.2°C 41.4°F5.2°C 87% 3.0 mph WSW4.8 kmh WSW 7.0 mph11.3 kmh 29.86 in1011.2 mb 0.00 in0.0 mm 0.00 in0.0 mm 0.52 in13.2 mm
10:36 PM 45.0°F7.2°C 41.2°F5.1°C 87% 3.0 mph WSW4.8 kmh WSW 9.0 mph14.5 kmh 29.86 in1011.2 mb 0.00 in0.0 mm 0.00 in0.0 mm 0.52 in13.2 mm
10:39 PM 44.8°F7.1°C 41.5°F5.3°C 88% 4.0 mph W6.4 kmh W 9.0 mph14.5 kmh 29.86 in1011.2 mb 0.00 in0.0 mm 0.00 in0.0 mm 0.52 in13.2 mm
10:42 PM 45.0°F7.2°C 41.5°F5.3°C 88% 4.0 mph W6.4 kmh W 10.0 mph16.1 kmh 29.86 in1011.2 mb 0.00 in0.0 mm 0.00 in0.0 mm 0.52 in13.2 mm
10:45 PM 45.0°F7.2°C 41.7°F5.4°C 88% 4.0 mph W6.4 kmh W 10.0 mph16.1 kmh 29.86 in1011.2 mb 0.00 in0.0 mm 0.00 in0.0 mm 0.52 in13.2 mm
10:48 PM 45.0°F7.2°C 41.7°F5.4°C 88% 5.0 mph W8.0 kmh W 13.0 mph20.9 kmh 29.86 in1011.2 mb 0.00 in0.0 mm 0.00 in0.0 mm 0.52 in13.2 mm
10:51 PM 45.0°F7.2°C 41.7°F5.4°C 88% 4.0 mph W6.4 kmh W 13.0 mph20.9 kmh 29.86 in1011.2 mb 0.00 in0.0 mm 0.00 in0.0 mm 0.52 in13.2 mm
10:54 PM 45.0°F7.2°C 41.2°F5.1°C 87% 4.0 mph WSW6.4 kmh WSW 13.0 mph20.9 kmh 29.86 in1011.2 mb 0.00 in0.0 mm 0.00 in0.0 mm 0.52 in13.2 mm
10:57 PM 44.8°F7.1°C 41.2°F5.1°C 87% 4.0 mph WSW6.4 kmh WSW 11.0 mph17.7 kmh 29.86 in1011.2 mb 0.00 in0.0 mm 0.00 in0.0 mm 0.52 in13.2 mm
11:00 PM 44.8°F7.1°C 41.5°F5.3°C 88% 5.0 mph WSW8.0 kmh WSW 11.0 mph17.7 kmh 29.86 in1011.2 mb 0.00 in0.0 mm 0.00 in0.0 mm 0.42 in10.7 mm
11:03 PM 44.8°F7.1°C 41.5°F5.3°C 88% 6.0 mph WSW9.7 kmh WSW 11.0 mph17.7 kmh 29.86 in1011.2 mb 0.00 in0.0 mm 0.00 in0.0 mm 0.42 in10.7 mm
11:06 PM 44.8°F7.1°C 41.5°F5.3°C 88% 6.0 mph WSW9.7 kmh WSW 11.0 mph17.7 kmh 29.86 in1011.2 mb 0.00 in0.0 mm 0.00 in0.0 mm 0.42 in10.7 mm
11:09 PM 44.8°F7.1°C 41.5°F5.3°C 88% 6.0 mph WSW9.7 kmh WSW 11.0 mph17.7 kmh 29.86 in1011.2 mb 0.00 in0.0 mm 0.00 in0.0 mm 0.42 in10.7 mm
11:12 PM 44.8°F7.1°C 41.5°F5.3°C 88% 6.0 mph WSW9.7 kmh WSW 11.0 mph17.7 kmh 29.86 in1011.2 mb 0.00 in0.0 mm 0.00 in0.0 mm 0.42 in10.7 mm
11:15 PM 44.8°F7.1°C 41.5°F5.3°C 88% 6.0 mph WSW9.7 kmh WSW 11.0 mph17.7 kmh 29.86 in1011.2 mb 0.00 in0.0 mm 0.00 in0.0 mm 0.42 in10.7 mm
11:18 PM 45.0°F7.2°C 41.5°F5.3°C 88% 6.0 mph WSW9.7 kmh WSW 12.0 mph19.3 kmh 29.86 in1011.2 mb 0.00 in0.0 mm 0.00 in0.0 mm 0.42 in10.7 mm
11:21 PM 45.0°F7.2°C 41.5°F5.3°C 88% 7.0 mph WSW11.3 kmh WSW 13.0 mph20.9 kmh 29.86 in1011.2 mb 0.00 in0.0 mm 0.00 in0.0 mm 0.42 in10.7 mm
11:24 PM 45.0°F7.2°C 41.7°F5.4°C 88% 6.0 mph WSW9.7 kmh WSW 13.0 mph20.9 kmh 29.86 in1011.2 mb 0.00 in0.0 mm 0.00 in0.0 mm 0.42 in10.7 mm
11:27 PM 45.0°F7.2°C 41.7°F5.4°C 88% 6.0 mph WSW9.7 kmh WSW 13.0 mph20.9 kmh 29.86 in1011.2 mb 0.00 in0.0 mm 0.00 in0.0 mm 0.42 in10.7 mm
11:30 PM 45.0°F7.2°C 41.7°F5.4°C 88% 6.0 mph W9.7 kmh W 12.0 mph19.3 kmh 29.86 in1011.2 mb 0.00 in0.0 mm 0.00 in0.0 mm 0.42 in10.7 mm
11:33 PM 45.0°F7.2°C 41.5°F5.3°C 88% 6.0 mph W9.7 kmh W 12.0 mph19.3 kmh 29.86 in1011.2 mb 0.00 in0.0 mm 0.00 in0.0 mm 0.42 in10.7 mm
11:36 PM 45.0°F7.2°C 41.5°F5.3°C 88% 6.0 mph W9.7 kmh W 12.0 mph19.3 kmh 29.86 in1011.2 mb 0.00 in0.0 mm 0.00 in0.0 mm 0.42 in10.7 mm
11:39 PM 45.0°F7.2°C 41.5°F5.3°C 88% 6.0 mph W9.7 kmh W 12.0 mph19.3 kmh 29.86 in1011.2 mb 0.00 in0.0 mm 0.00 in0.0 mm 0.42 in10.7 mm
11:42 PM 45.0°F7.2°C 41.7°F5.4°C 88% 6.0 mph WSW9.7 kmh WSW 12.0 mph19.3 kmh 29.86 in1011.2 mb 0.00 in0.0 mm 0.00 in0.0 mm 0.42 in10.7 mm
11:45 PM 45.0°F7.2°C 41.4°F5.2°C 87% 7.0 mph WSW11.3 kmh WSW 12.0 mph19.3 kmh 29.86 in1011.2 mb 0.00 in0.0 mm 0.00 in0.0 mm 0.42 in10.7 mm
11:48 PM 45.0°F7.2°C 41.4°F5.2°C 87% 6.0 mph WSW9.7 kmh WSW 12.0 mph19.3 kmh 29.85 in1010.8 mb 0.00 in0.0 mm 0.00 in0.0 mm 0.42 in10.7 mm
11:51 PM 45.0°F7.2°C 41.4°F5.2°C 87% 6.0 mph WSW9.7 kmh WSW 12.0 mph19.3 kmh 29.86 in1011.2 mb 0.00 in0.0 mm 0.00 in0.0 mm 0.42 in10.7 mm
11:54 PM 45.0°F7.2°C 41.4°F5.2°C 87% 6.0 mph WSW9.7 kmh WSW 12.0 mph19.3 kmh 29.85 in1010.8 mb 0.00 in0.0 mm 0.00 in0.0 mm 0.42 in10.7 mm
11:57 PM 45.0°F7.2°C 41.2°F5.1°C 87% 6.0 mph WSW9.7 kmh WSW 12.0 mph19.3 kmh 29.85 in1010.8 mb 0.00 in0.0 mm 0.00 in0.0 mm 0.42 in10.7 mm